Provisional Data: Little Clearfield Creek near Dimeling, PA


Please select a monitoring station.
Please select start date.
Please select start date.

Toggle Unit: C/F Toggle Unit: C/F
Sample Time Temperature (C) Temperature (F) Specific Conductivity (mS/cm) pH   Turbidity (NTU+) DO (mg/L)
3/23/2021 12:00:00 AM 6.2 43.16 0.32 7.7 4.3 11.9
3/23/2021 12:15:00 AM 6.12 43.016 0.321 7.7 4.27 11.91
3/23/2021 12:30:00 AM 6.04 42.872 0.321 7.69 4.1 11.94
3/23/2021 12:45:00 AM 5.97 42.746 0.321 7.69 4.15 11.95
3/23/2021 1:00:00 AM 5.91 42.638 0.321 7.69 3.95 11.98
3/23/2021 1:15:00 AM 5.83 42.494 0.322 7.69 4.13 12
3/23/2021 1:30:00 AM 5.77 42.386 0.322 7.69 4.18 12.02
3/23/2021 1:45:00 AM 5.7 42.26 0.322 7.69 4.04 12.03
3/23/2021 2:00:00 AM 5.63 42.134 0.323 7.69 4.16 12.05
3/23/2021 2:15:00 AM 5.57 42.026 0.323 7.69 4.19 12.07
3/23/2021 2:30:00 AM 5.5 41.9 0.323 7.69 4.26 12.09
3/23/2021 2:45:00 AM 5.44 41.792 0.324 7.68 4.25 12.1
3/23/2021 3:00:00 AM 5.37 41.666 0.324 7.68 4.02 12.13
3/23/2021 3:15:00 AM 5.3 41.54 0.325 7.68 4.26 12.15
3/23/2021 3:30:00 AM 5.22 41.396 0.324 7.68 4.22 12.18
3/23/2021 3:45:00 AM 5.15 41.27 0.324 7.68 4.15 12.2
3/23/2021 4:00:00 AM 5.07 41.126 0.325 7.68 4.06 12.22
3/23/2021 4:15:00 AM 4.99 40.982 0.325 7.68 4.32 12.25
3/23/2021 4:30:00 AM 4.91 40.838 0.325 7.68 4.67 12.28
3/23/2021 4:45:00 AM 4.83 40.694 0.325 7.68 4.06 12.3
3/23/2021 5:00:00 AM 4.75 40.55 0.325 7.68 4.22 12.34
3/23/2021 5:15:00 AM 4.68 40.424 0.326 7.68 4.29 12.36
3/23/2021 5:30:00 AM 4.6 40.28 0.326 7.68 4.25 12.39
3/23/2021 5:45:00 AM 4.52 40.136 0.326 7.68 4.27 12.42
3/23/2021 6:00:00 AM 4.44 39.992 0.326 7.68 4.3 12.44
3/23/2021 6:15:00 AM 4.37 39.866 0.326 7.68 4.48 12.47
3/23/2021 6:30:00 AM 4.3 39.74 0.326 7.68 4.21 12.49
3/23/2021 6:45:00 AM 4.24 39.632 0.326 7.68 4.29 12.52
3/23/2021 7:00:00 AM 4.17 39.506 0.327 7.68 4.3 12.54
3/23/2021 7:15:00 AM 4.12 39.416 0.327 7.67 4.12 12.56
3/23/2021 7:30:00 AM 4.06 39.308 0.327 7.67 4.4 12.59
3/23/2021 7:45:00 AM 4.01 39.218 0.326 7.68 4.05 12.63
3/23/2021 8:00:00 AM 3.96 39.128 0.327 7.68 4.2 12.67
3/23/2021 8:15:00 AM 3.93 39.074 0.327 7.69 4.15 12.7
3/23/2021 8:30:00 AM 3.9 39.02 0.327 7.69 4.24 12.75
3/23/2021 8:45:00 AM 3.9 39.02 0.327 7.7 4.1 12.8
3/23/2021 9:00:00 AM 3.91 39.038 0.327 7.7 4.12 12.84
3/23/2021 9:15:00 AM 3.93 39.074 0.327 7.71 4.13 12.88
3/23/2021 9:30:00 AM 3.93 39.074 0.327 7.71 4.48 12.9
3/23/2021 9:45:00 AM 3.97 39.146 0.327 7.72 4.24 12.93
3/23/2021 10:00:00 AM 4.03 39.254 0.327 7.72 4.25 12.95
3/23/2021 10:15:00 AM 4.09 39.362 0.327 7.73 4.08 12.96
3/23/2021 10:30:00 AM 4.17 39.506 0.327 7.73 4.5 12.97
3/23/2021 10:45:00 AM 4.26 39.668 0.327 7.74 4.35 12.98
3/23/2021 11:00:00 AM 4.34 39.812 0.327 7.75 3.99 13
3/23/2021 11:15:00 AM 4.48 40.064 0.327 7.76 4.32 13.01
3/23/2021 11:30:00 AM 4.63 40.334 0.327 7.76 4.11 13
3/23/2021 11:45:00 AM 4.8 40.64 0.327 7.78 3.9 12.99
3/23/2021 12:00:00 PM 4.97 40.946 0.327 7.78 3.88 12.98
3/23/2021 12:15:00 PM 5.13 41.234 0.327 7.79 3.89 12.96
3/23/2021 12:30:00 PM 5.31 41.558 0.327 7.8 3.84 12.94
3/23/2021 12:45:00 PM 5.49 41.882 0.327 7.8 3.87 12.92
3/23/2021 1:00:00 PM 5.69 42.242 0.327 7.81 3.93 12.89
3/23/2021 1:15:00 PM 5.83 42.494 0.327 7.82 3.96 12.86
3/23/2021 1:30:00 PM 5.97 42.746 0.327 7.83 3.75 12.84
3/23/2021 1:45:00 PM 6.15 43.07 0.328 7.83 3.88 12.8
3/23/2021 2:00:00 PM 6.25 43.25 0.328 7.84 3.81 12.76
3/23/2021 2:15:00 PM 6.36 43.448 0.328 7.84 3.94 12.74
3/23/2021 2:30:00 PM 6.53 43.754 0.327 7.85 3.94 12.71
3/23/2021 2:45:00 PM 6.64 43.952 0.327 7.86 3.86 12.68
3/23/2021 3:00:00 PM 6.78 44.204 0.328 7.86 4.01 12.65
3/23/2021 3:15:00 PM 7.02 44.636 0.328 7.86 3.98 12.6
3/23/2021 3:30:00 PM 7.02 44.636 0.328 7.87 4.05 12.56
3/23/2021 3:45:00 PM 7.17 44.906 0.328 7.88 4.07 12.53
3/23/2021 4:00:00 PM 7.29 45.122 0.328 7.88 4.21 12.5
3/23/2021 4:15:00 PM 7.33 45.194 0.328 7.89 4.44 12.46
3/23/2021 4:30:00 PM 7.35 45.23 0.329 7.89 4.55 12.43
3/23/2021 4:45:00 PM 7.48 45.464 0.328 7.9 4.62 12.41
3/23/2021 5:00:00 PM 7.55 45.59 0.329 7.9 4.73 12.36
3/23/2021 5:15:00 PM 7.57 45.626 0.329 7.9 4.76 12.33
3/23/2021 5:30:00 PM 7.6 45.68 0.329 7.9 4.5 12.3
3/23/2021 5:45:00 PM 7.62 45.716 0.329 7.9 4.61 12.24
3/23/2021 6:00:00 PM 7.68 45.824 0.329 7.9 4.53 12.22
3/23/2021 6:15:00 PM 7.67 45.806 0.33 7.89 4.79 12.17
3/23/2021 6:30:00 PM 7.68 45.824 0.329 7.89 5.43 12.12
3/23/2021 6:45:00 PM 7.69 45.842 0.33 7.88 4.52 12.05
3/23/2021 7:00:00 PM 7.69 45.842 0.33 7.87 4.36 11.98
3/23/2021 7:15:00 PM 7.69 45.842 0.33 7.86 4.55 11.93
3/23/2021 7:30:00 PM 7.69 45.842 0.331 7.84 4.64 11.88
3/23/2021 7:45:00 PM 7.68 45.824 0.331 7.83 5.02 11.83
3/23/2021 8:00:00 PM 7.67 45.806 0.331 7.82 5.58 11.79
3/23/2021 8:15:00 PM 7.66 45.788 0.331 7.81 4.85 11.76
3/23/2021 8:30:00 PM 7.63 45.734 0.331 7.81 4.66 11.73
3/23/2021 8:45:00 PM 7.6 45.68 0.332 7.79 4.79 11.71
3/23/2021 9:00:00 PM 7.57 45.626 0.332 7.79 4.51 11.68
3/23/2021 9:15:00 PM 7.53 45.554 0.332 7.78 67.6 11.66
3/23/2021 9:30:00 PM 7.5 45.5 0.333 7.77 10.23 11.65
3/23/2021 9:45:00 PM 7.47 45.446 0.333 7.77 5 11.64
3/23/2021 10:00:00 PM 7.44 45.392 0.333 7.76 4.14 11.63
3/23/2021 10:15:00 PM 7.4 45.32 0.334 7.75 4.26 11.61
3/23/2021 10:30:00 PM 7.37 45.266 0.334 7.75 4.2 11.61
3/23/2021 10:45:00 PM 7.34 45.212 0.335 7.75 4.35 11.6
3/23/2021 11:00:00 PM 7.3 45.14 0.335 7.74 4.35 11.6
3/23/2021 11:15:00 PM 7.27 45.086 0.335 7.74 5.21 11.6
3/23/2021 11:30:00 PM 7.23 45.014 0.335 7.73 5.26 11.6
3/23/2021 11:45:00 PM 7.19 44.942 0.336 7.73 4.81 11.6
3/24/2021 12:00:00 AM 7.16 44.888 0.335 7.73 4.31 11.61
3/24/2021 12:15:00 AM 7.13 44.834 0.336 7.73 4.15 11.61
3/24/2021 12:30:00 AM 7.1 44.78 0.337 7.73 4 11.62
3/24/2021 12:45:00 AM 7.06 44.708 0.337 7.72 4.08 11.63
3/24/2021 1:00:00 AM 7.04 44.672 0.337 7.72 4.29 11.63
3/24/2021 1:15:00 AM 7.02 44.636 0.337 7.72 4.25 11.64
3/24/2021 1:30:00 AM 7 44.6 0.338 7.72 4.25 11.64
3/24/2021 1:45:00 AM 6.98 44.564 0.338 7.72 4.08 11.65
3/24/2021 2:00:00 AM 6.96 44.528 0.338 7.72 4.06 11.65
3/24/2021 2:15:00 AM 6.96 44.528 0.338 7.72 4.12 11.65
3/24/2021 2:30:00 AM 6.95 44.51 0.338 7.71 4.16 11.65
3/24/2021 2:45:00 AM 6.95 44.51 0.339 7.72 4.1 11.65
3/24/2021 3:00:00 AM 6.94 44.492 0.339 7.71 3.98 11.66
3/24/2021 3:15:00 AM 6.94 44.492 0.339 7.71 4.02 11.66
3/24/2021 3:30:00 AM 6.94 44.492 0.339 7.71 4.22 11.66
3/24/2021 3:45:00 AM 6.93 44.474 0.339 7.71 4.08 11.67
3/24/2021 4:00:00 AM 6.93 44.474 0.339 7.71 4.12 11.66
3/24/2021 4:15:00 AM 6.93 44.474 0.339 7.71 4.16 11.67
3/24/2021 4:30:00 AM 6.92 44.456 0.339 7.71 4.1 11.67
3/24/2021 4:45:00 AM 6.92 44.456 0.339 7.71 4.09 11.67
3/24/2021 5:00:00 AM 6.91 44.438 0.339 7.71 3.97 11.68
3/24/2021 5:15:00 AM 6.91 44.438 0.339 7.71 4 11.67
3/24/2021 5:30:00 AM 6.9 44.42 0.339 7.71 4.2 11.68
3/24/2021 5:45:00 AM 6.89 44.402 0.339 7.71 4.02 11.68
3/24/2021 6:00:00 AM 6.88 44.384 0.339 7.71 4.31 11.68
3/24/2021 6:15:00 AM 6.88 44.384 0.339 7.71 4.05 11.68
3/24/2021 6:30:00 AM 6.88 44.384 0.339 7.71 4.15 11.68
3/24/2021 6:45:00 AM 6.88 44.384 0.339 7.7 4.09 11.69
3/24/2021 7:00:00 AM 6.87 44.366 0.339 7.7 5.39 11.68
3/24/2021 7:15:00 AM 6.87 44.366 0.338 7.7 4.21 11.68
3/24/2021 7:30:00 AM 6.87 44.366 0.337 7.7 4.42 11.69
3/24/2021 7:45:00 AM 6.87 44.366 0.337 7.69 4.37 11.69
3/24/2021 8:00:00 AM 6.86 44.348 0.337 7.69 4.34 11.7
3/24/2021 8:15:00 AM 6.86 44.348 0.335 7.69 6.71 11.72
3/24/2021 8:30:00 AM 6.86 44.348 0.337 7.7 4.59 11.73
3/24/2021 8:45:00 AM 6.87 44.366 0.337 7.7 4.45 11.75
3/24/2021 9:00:00 AM 6.88 44.384 0.337 7.7 4.96 11.79
3/24/2021 9:15:00 AM 6.9 44.42 0.337 7.71 4.51 11.83
3/24/2021 9:30:00 AM 6.93 44.474 0.337 7.72 5.01 11.86
3/24/2021 9:45:00 AM 6.95 44.51 0.337 7.73 5.33 11.9
3/24/2021 10:00:00 AM 6.97 44.546 0.337 7.73 4.98 11.91
3/24/2021 10:15:00 AM 6.99 44.582 0.337 7.74 4.77 11.92
3/24/2021 10:30:00 AM 7.01 44.618 0.336 7.74 4.61 11.94
3/24/2021 10:45:00 AM 7.05 44.69 0.336 7.75 4.62 11.95
3/24/2021 11:00:00 AM 7.11 44.798 0.336 7.76 4.49 11.99
3/24/2021 11:15:00 AM 7.17 44.906 0.336 7.77 4.21 12.01
3/24/2021 11:30:00 AM 7.21 44.978 0.336 7.78 4.29 12.03
3/24/2021 11:45:00 AM 7.27 45.086 0.336 7.79 4.17 12.04
3/24/2021 12:00:00 PM 7.34 45.212 0.337 7.8 4.21 12.06
3/24/2021 12:15:00 PM 7.46 45.428 0.337 7.81 4.35 12.08
3/24/2021 12:30:00 PM 7.53 45.554 0.337 7.82 4.5 12.09
3/24/2021 12:45:00 PM 7.6 45.68 0.338 7.83 4.27 12.1
3/24/2021 1:00:00 PM 7.67 45.806 0.338 7.84 4.18 12.09
3/24/2021 1:15:00 PM 7.71 45.878 0.338 7.85 4.13 12.08
3/24/2021 1:30:00 PM 7.78 46.004 0.339 7.85 4.2 12.08
3/24/2021 1:45:00 PM 7.85 46.13 0.338 7.86 4.12 12.07
3/24/2021 2:00:00 PM 7.93 46.274 0.339 7.87 4.13 12.07
3/24/2021 2:15:00 PM 8.03 46.454 0.339 7.88 4.18 12.07
3/24/2021 2:30:00 PM 8.14 46.652 0.339 7.88 4.17 12.05
3/24/2021 2:45:00 PM 8.27 46.886 0.339 7.89 4.01 12.04
3/24/2021 3:00:00 PM 8.49 47.282 0.339 7.9 4.16 12.04
3/24/2021 3:15:00 PM 8.54 47.372 0.339 7.91 4.09 12.02
3/24/2021 3:30:00 PM 8.66 47.588 0.338 7.92 4.36 12
3/24/2021 3:45:00 PM 8.81 47.858 0.339 7.92 4.1 11.97
3/24/2021 4:00:00 PM 8.89 48.002 0.338 7.93 4.1 11.94
3/24/2021 4:15:00 PM 9 48.2 0.338 7.94 4.17 11.91
3/24/2021 4:30:00 PM 9.1 48.38 0.337 7.94 4.53 11.9
3/24/2021 4:45:00 PM 9.16 48.488 0.337 7.95 4.31 11.87
3/24/2021 5:00:00 PM 9.25 48.65 0.338 7.95 4.37 11.83
3/24/2021 5:15:00 PM 9.32 48.776 0.337 7.95 4.28 11.8
3/24/2021 5:30:00 PM 9.37 48.866 0.337 7.95 4.15 11.75
3/24/2021 5:45:00 PM 9.44 48.992 0.337 7.95 4.26 11.71
3/24/2021 6:00:00 PM 9.47 49.046 0.337 7.95 4.04 11.66
3/24/2021 6:15:00 PM 9.46 49.028 0.337 7.94 4.42 11.6
3/24/2021 6:30:00 PM 9.47 49.046 0.337 7.93 4.22 11.53
3/24/2021 6:45:00 PM 9.48 49.064 0.337 7.92 4.08 11.47
3/24/2021 7:00:00 PM 9.47 49.046 0.337 7.9 4.23 11.42
3/24/2021 7:15:00 PM 9.46 49.028 0.338 7.89 4.27 11.37
3/24/2021 7:30:00 PM 9.46 49.028 0.337 7.88 4.18 11.31
3/24/2021 7:45:00 PM 9.45 49.01 0.338 7.87 4.31 11.26
3/24/2021 8:00:00 PM 9.44 48.992 0.337 7.86 6.11 11.22
3/24/2021 8:15:00 PM 9.43 48.974 0.338 7.85 5.21 11.18
3/24/2021 8:30:00 PM 9.43 48.974 0.338 7.84 4.35 11.15
3/24/2021 8:45:00 PM 9.42 48.956 0.339 7.83 4.35 11.13
3/24/2021 9:00:00 PM 9.39 48.902 0.339 7.82 4.3 11.11
3/24/2021 9:15:00 PM 9.37 48.866 0.34 7.81 4.1 11.09
3/24/2021 9:30:00 PM 9.34 48.812 0.34 7.81 4.41 11.07
3/24/2021 9:45:00 PM 9.33 48.794 0.34 7.8 4.37 11.06
3/24/2021 10:00:00 PM 9.32 48.776 0.341 7.79 4.28 11.04
3/24/2021 10:15:00 PM 9.31 48.758 0.341 7.78 4.33 11.02
3/24/2021 10:30:00 PM 9.31 48.758 0.341 7.78 4.31 11.01
3/24/2021 10:45:00 PM 9.3 48.74 0.341 7.77 4.37 11.01
3/24/2021 11:00:00 PM 9.3 48.74 0.342 7.77 4.24 10.99
3/24/2021 11:15:00 PM 9.29 48.722 0.342 7.76 4.26 10.98
3/24/2021 11:30:00 PM 9.27 48.686 0.343 7.76 4.33 10.98
3/24/2021 11:45:00 PM 9.26 48.668 0.343 7.75 4.04 10.98
3/25/2021 12:00:00 AM 9.24 48.632 0.343 7.75 4.17 10.98
3/25/2021 12:15:00 AM 9.21 48.578 0.344 7.74 4.07 10.97
3/25/2021 12:30:00 AM 9.19 48.542 0.345 7.74 4.04 10.98
3/25/2021 12:45:00 AM 9.16 48.488 0.344 7.73 4.14 10.98
3/25/2021 1:00:00 AM 9.12 48.416 0.345 7.73 4.19 10.99
3/25/2021 1:15:00 AM 9.08 48.344 0.346 7.73 4.3 10.99
3/25/2021 1:30:00 AM 9.04 48.272 0.347 7.72 4.15 11
3/25/2021 1:45:00 AM 9 48.2 0.347 7.72 4.13 11.01
3/25/2021 2:00:00 AM 8.96 48.128 0.348 7.72 4.27 11.01
3/25/2021 2:15:00 AM 8.94 48.092 0.347 7.71 4.19 11.01
3/25/2021 2:30:00 AM 8.91 48.038 0.347 7.71 4.24 11.01
3/25/2021 2:45:00 AM 8.88 47.984 0.348 7.71 4.19 11.02
3/25/2021 3:00:00 AM 8.84 47.912 0.348 7.71 3.98 11.02
3/25/2021 3:15:00 AM 8.81 47.858 0.347 7.71 4.14 11.03
3/25/2021 3:30:00 AM 8.77 47.786 0.348 7.71 4.29 11.04
3/25/2021 3:45:00 AM 8.74 47.732 0.348 7.71 4.31 11.04
3/25/2021 4:00:00 AM 8.71 47.678 0.348 7.71 4.1 11.05
3/25/2021 4:15:00 AM 8.67 47.606 0.348 7.71 4.21 11.06
3/25/2021 4:30:00 AM 8.66 47.588 0.348 7.71 4.24 11.06
3/25/2021 4:45:00 AM 8.64 47.552 0.348 7.71 4.17 11.07
3/25/2021 5:00:00 AM 8.62 47.516 0.348 7.7 4.04 11.08
3/25/2021 5:15:00 AM 8.6 47.48 0.348 7.71 4.59 11.09
3/25/2021 5:30:00 AM 8.57 47.426 0.348 7.71 3.9 11.1
3/25/2021 5:45:00 AM 8.54 47.372 0.348 7.71 4.29 11.11
3/25/2021 6:00:00 AM 8.5 47.3 0.348 7.71 4.2 11.13
3/25/2021 6:15:00 AM 8.46 47.228 0.348 7.71 4.25 11.14
3/25/2021 6:30:00 AM 8.42 47.156 0.348 7.71 4.11 11.14
3/25/2021 6:45:00 AM 8.38 47.084 0.349 7.71 3.93 11.16
3/25/2021 7:00:00 AM 8.34 47.012 0.348 7.71 5.13 11.17
3/25/2021 7:15:00 AM 8.3 46.94 0.348 7.71 4.22 11.19
3/25/2021 7:30:00 AM 8.27 46.886 0.347 7.71 4.29 11.21
3/25/2021 7:45:00 AM 8.25 46.85 0.348 7.72 4.25 11.25
3/25/2021 8:00:00 AM 8.23 46.814 0.348 7.72 4.33 11.29
3/25/2021 8:15:00 AM 8.21 46.778 0.348 7.73 4.16 11.34
3/25/2021 8:30:00 AM 8.2 46.76 0.347 7.74 4.08 11.39
3/25/2021 8:45:00 AM 8.19 46.742 0.347 7.75 4.18 11.45
3/25/2021 9:00:00 AM 8.2 46.76 0.347 7.76 4.05 11.51
3/25/2021 9:15:00 AM 8.23 46.814 0.347 7.77 4.06 11.57
3/25/2021 9:30:00 AM 8.27 46.886 0.347 7.78 4.19 11.61
3/25/2021 9:45:00 AM 8.3 46.94 0.347 7.79 4.39 11.66
3/25/2021 10:00:00 AM 8.37 47.066 0.347 7.8 4.11 11.7
3/25/2021 10:15:00 AM 8.44 47.192 0.347 7.82 4.19 11.73
3/25/2021 10:30:00 AM 8.53 47.354 0.346 7.82 3.99 11.74
3/25/2021 10:45:00 AM 8.6 47.48 0.346 7.83 4.1 11.75
3/25/2021 11:00:00 AM 8.66 47.588 0.347 7.84 4.25 11.76
3/25/2021 11:15:00 AM 8.76 47.768 0.346 7.85 3.99 11.77
3/25/2021 11:30:00 AM 8.87 47.966 0.346 7.86 4.08 11.78
3/25/2021 11:45:00 AM 9.01 48.218 0.346 7.87 4.01 11.8
3/25/2021 12:00:00 PM 9.16 48.488 0.346 7.88 3.94 11.8
3/25/2021 12:15:00 PM 9.3 48.74 0.345 7.89 4 11.8
3/25/2021 12:30:00 PM 9.44 48.992 0.345 7.9 3.78 11.8
3/25/2021 12:45:00 PM 9.58 49.244 0.345 7.92 3.95 11.8
3/25/2021 1:00:00 PM 9.77 49.586 0.345 7.92 4.03 11.79
3/25/2021 1:15:00 PM 9.92 49.856 0.345 7.94 3.91 11.78
3/25/2021 1:30:00 PM 10.07 50.126 0.345 7.95 3.93 11.76
3/25/2021 1:45:00 PM 10.24 50.432 0.344 7.96 3.87 11.73
3/25/2021 2:00:00 PM 10.41 50.738 0.344 7.97 3.91 11.72
3/25/2021 2:15:00 PM 10.54 50.972 0.344 7.97 3.96 11.69
3/25/2021 2:30:00 PM 10.64 51.152 0.344 7.98 3.97 11.66
3/25/2021 2:45:00 PM 10.78 51.404 0.343 7.99 4.07 11.63
3/25/2021 3:00:00 PM 10.87 51.566 0.344 8 4.02 11.6
3/25/2021 3:15:00 PM 10.97 51.746 0.343 8 4.1 11.57
3/25/2021 3:30:00 PM 11.04 51.872 0.343 8.01 3.9 11.54
3/25/2021 3:45:00 PM 11.12 52.016 0.343 8.02 3.9 11.51
3/25/2021 4:00:00 PM 11.19 52.142 0.343 8.02 4.08 11.49
3/25/2021 4:15:00 PM 11.22 52.196 0.343 8.02 3.97 11.43
3/25/2021 4:30:00 PM 11.24 52.232 0.343 8.03 4.3 11.41
3/25/2021 4:45:00 PM 11.28 52.304 0.343 8.03 3.9 11.37
3/25/2021 5:00:00 PM 11.34 52.412 0.343 8.02 4.1 11.36
3/25/2021 5:15:00 PM 11.35 52.43 0.343 8.03 3.91 11.32
3/25/2021 5:30:00 PM 11.37 52.466 0.343 8.02 4.12 11.27
3/25/2021 5:45:00 PM 11.39 52.502 0.343 8.02 4.33 11.23
3/25/2021 6:00:00 PM 11.39 52.502 0.343 8.01 3.98 11.16
3/25/2021 6:15:00 PM 11.38 52.484 0.343 8 4.19 11.1
3/25/2021 6:30:00 PM 11.38 52.484 0.344 7.98 4.06 11.04
3/25/2021 6:45:00 PM 11.37 52.466 0.344 7.96 4.1 10.97
3/25/2021 7:00:00 PM 11.35 52.43 0.344 7.95 3.99 10.9
3/25/2021 7:15:00 PM 11.34 52.412 0.344 7.93 4.04 10.83
3/25/2021 7:30:00 PM 11.32 52.376 0.345 7.91 4.19 10.77
3/25/2021 7:45:00 PM 11.31 52.358 0.345 7.9 4.14 10.72
3/25/2021 8:00:00 PM 11.29 52.322 0.346 7.88 3.96 10.68
3/25/2021 8:15:00 PM 11.27 52.286 0.345 7.87 4.12 10.64
3/25/2021 8:30:00 PM 11.26 52.268 0.346 7.86 4.28 10.61
3/25/2021 8:45:00 PM 11.25 52.25 0.346 7.85 4.32 10.58
3/25/2021 9:00:00 PM 11.24 52.232 0.347 7.84 4.11 10.55
3/25/2021 9:15:00 PM 11.22 52.196 0.347 7.83 4.17 10.54
3/25/2021 9:30:00 PM 11.21 52.178 0.347 7.82 4.22 10.51
3/25/2021 9:45:00 PM 11.2 52.16 0.347 7.81 3.91 10.5
3/25/2021 10:00:00 PM 11.17 52.106 0.348 7.81 4.09 10.48
3/25/2021 10:15:00 PM 11.15 52.07 0.348 7.8 4.16 10.46
3/25/2021 10:30:00 PM 11.13 52.034 0.348 7.79 4.32 10.46
3/25/2021 10:45:00 PM 11.12 52.016 0.348 7.79 4.28 10.45
3/25/2021 11:00:00 PM 11.1 51.98 0.348 7.78 3.91 10.44
3/25/2021 11:15:00 PM 11.08 51.944 0.348 7.78 4.05 10.43
3/25/2021 11:30:00 PM 11.07 51.926 0.348 7.77 4.14 10.44
3/25/2021 11:45:00 PM 11.03 51.854 0.348 7.77 4.33 10.43
3/26/2021 12:00:00 AM 11.01 51.818 0.348 7.77 4.36 10.43
3/26/2021 12:15:00 AM 11 51.8 0.348 7.77 4.09 10.43
3/26/2021 12:30:00 AM 11 51.8 0.349 7.76 4.16 10.42
3/26/2021 12:45:00 AM 10.98 51.764 0.349 7.76 4.06 10.42
3/26/2021 1:00:00 AM 10.97 51.746 0.349 7.76 4.23 10.42
3/26/2021 1:15:00 AM 10.96 51.728 0.349 7.76 4.2 10.41
3/26/2021 1:30:00 AM 10.95 51.71 0.349 7.75 4.31 10.41
3/26/2021 1:45:00 AM 10.94 51.692 0.349 7.75 4.35 10.41
3/26/2021 2:00:00 AM 10.92 51.656 0.35 7.75 4.04 10.42
3/26/2021 2:15:00 AM 10.91 51.638 0.35 7.75 4 10.41
3/26/2021 2:30:00 AM 10.89 51.602 0.35 7.74 4.17 10.41
3/26/2021 2:45:00 AM 10.87 51.566 0.351 7.74 4.17 10.42
3/26/2021 3:00:00 AM 10.85 51.53 0.351 7.74 4.26 10.42
3/26/2021 3:15:00 AM 10.84 51.512 0.351 7.74 4.15 10.42
3/26/2021 3:30:00 AM 10.83 51.494 0.351 7.74 4.38 10.42
3/26/2021 3:45:00 AM 10.79 51.422 0.351 7.74 4.12 10.42
3/26/2021 4:00:00 AM 10.75 51.35 0.351 7.74 4.53 10.42
3/26/2021 4:15:00 AM 10.73 51.314 0.351 7.73 4.38 10.42
3/26/2021 4:30:00 AM 10.71 51.278 0.351 7.73 4.3 10.42
3/26/2021 4:45:00 AM 10.69 51.242 0.352 7.74 4.32 10.43
3/26/2021 5:00:00 AM 10.67 51.206 0.351 7.73 4.12 10.42
3/26/2021 5:15:00 AM 10.66 51.188 0.351 7.73 4.23 10.43
3/26/2021 5:30:00 AM 10.65 51.17 0.351 7.73 4.21 10.43
3/26/2021 5:45:00 AM 10.63 51.134 0.352 7.73 4.17 10.43
3/26/2021 6:00:00 AM 10.61 51.098 0.352 7.73 4.03 10.44
3/26/2021 6:15:00 AM 10.61 51.098 0.353 7.73 4.38 10.44
3/26/2021 6:30:00 AM 10.6 51.08 0.352 7.73 4.26 10.44
3/26/2021 6:45:00 AM 10.6 51.08 0.352 7.74 4.35 10.45
3/26/2021 7:00:00 AM 10.6 51.08 0.352 7.73 4.11 10.44
3/26/2021 7:15:00 AM 10.58 51.044 0.353 7.73 4.28 10.45
3/26/2021 7:30:00 AM 10.56 51.008 0.353 7.74 4.38 10.46
3/26/2021 7:45:00 AM 10.53 50.954 0.353 7.74 4.36 10.49
3/26/2021 8:00:00 AM 10.52 50.936 0.353 7.75 4.28 10.53
3/26/2021 8:15:00 AM 10.52 50.936 0.353 7.76 4.25 10.56
3/26/2021 8:30:00 AM 10.54 50.972 0.354 7.77 4.34 10.61
3/26/2021 8:45:00 AM 10.59 51.062 0.354 7.78 4.34 10.67
3/26/2021 9:00:00 AM 10.61 51.098 0.353 7.79 4.35 10.71
3/26/2021 9:15:00 AM 10.62 51.116 0.354 7.81 4.25 10.75
3/26/2021 9:30:00 AM 10.67 51.206 0.354 7.82 4.3 10.78
3/26/2021 9:45:00 AM 10.73 51.314 0.354 7.82 4.5 10.81
3/26/2021 10:00:00 AM 10.83 51.494 0.353 7.84 4.27 10.86
3/26/2021 10:15:00 AM 10.9 51.62 0.353 7.85 4.63 10.91
3/26/2021 10:30:00 AM 10.94 51.692 0.354 7.86 4.58 10.95
3/26/2021 10:45:00 AM 10.96 51.728 0.354 7.88 4.45 10.98
3/26/2021 11:00:00 AM 11.03 51.854 0.353 7.89 4.32 11
3/26/2021 11:15:00 AM 11.14 52.052 0.354 7.9 4.41 11.02
3/26/2021 11:30:00 AM 11.26 52.268 0.354 7.91 4.18 11.07
3/26/2021 11:45:00 AM 11.34 52.412 0.355 7.93 4.4 11.08
3/26/2021 12:00:00 PM 11.43 52.574 0.355 7.94 4.19 11.09
3/26/2021 12:15:00 PM 11.48 52.664 0.355 7.95 4.24 11.12
3/26/2021 12:30:00 PM 11.52 52.736 0.356 7.96 4.24 11.12
3/26/2021 12:45:00 PM 11.54 52.772 0.355 7.97 4.3 11.13
3/26/2021 1:00:00 PM 11.62 52.916 0.355 7.98 4.34 11.15
3/26/2021 1:15:00 PM 11.67 53.006 0.355 7.99 4.22 11.15
3/26/2021 1:30:00 PM 11.7 53.06 0.355 7.99 4.22 11.15
3/26/2021 1:45:00 PM 11.73 53.114 0.354 8 4.66 11.15
3/26/2021 2:00:00 PM 11.76 53.168 0.354 8.01 4.23 11.15
3/26/2021 2:15:00 PM 11.77 53.186 0.355 8.02 4.23 11.15
3/26/2021 2:30:00 PM 11.72 53.096 0.355 8.02 4.29 11.12
3/26/2021 2:45:00 PM 11.84 53.312 0.355 8.02 4.06 11.14
3/26/2021 3:00:00 PM 11.78 53.204 0.355 8.03 4.33 11.13
3/26/2021 3:15:00 PM 11.78 53.204 0.354 8.03 4.12 11.14
3/26/2021 3:30:00 PM 11.79 53.222 0.354 8.04 4.19 11.14
3/26/2021 3:45:00 PM 11.78 53.204 0.354 8.05 4.16 11.15
3/26/2021 4:00:00 PM 11.77 53.186 0.355 8.05 4.16 11.15
3/26/2021 4:15:00 PM 11.75 53.15 0.354 8.05 4.12 11.13
3/26/2021 4:30:00 PM 11.75 53.15 0.355 8.05 4.14 11.12
3/26/2021 4:45:00 PM 11.77 53.186 0.355 8.05 4.19 11.12
3/26/2021 5:00:00 PM 11.77 53.186 0.355 8.05 4.09 11.12
3/26/2021 5:15:00 PM 11.81 53.258 0.356 8.06 4.06 11.12
3/26/2021 5:30:00 PM 11.78 53.204 0.356 8.06 4.12 11.12
3/26/2021 5:45:00 PM 11.74 53.132 0.355 8.06 4.27 11.08
3/26/2021 6:00:00 PM 11.71 53.078 0.355 8.04 3.84 11.05
3/26/2021 6:15:00 PM 11.67 53.006 0.355 8.04 4.13 11.01
3/26/2021 6:30:00 PM 11.6 52.88 0.356 8.02 4.31 10.96
3/26/2021 6:45:00 PM 11.53 52.754 0.356 8.01 4.18 10.92
3/26/2021 7:00:00 PM 11.47 52.646 0.356 7.99 3.99 10.87
3/26/2021 7:15:00 PM 11.42 52.556 0.357 7.97 4.2 10.81
3/26/2021 7:30:00 PM 11.38 52.484 0.357 7.95 3.93 10.76
3/26/2021 7:45:00 PM 11.32 52.376 0.357 7.94 4.11 10.72
3/26/2021 8:00:00 PM 11.28 52.304 0.357 7.92 4.22 10.68
3/26/2021 8:15:00 PM 11.21 52.178 0.358 7.91 4.16 10.66
3/26/2021 8:30:00 PM 11.16 52.088 0.358 7.89 3.93 10.63
3/26/2021 8:45:00 PM 11.13 52.034 0.358 7.88 4.04 10.61
3/26/2021 9:00:00 PM 11.1 51.98 0.358 7.87 4.04 10.6
3/26/2021 9:15:00 PM 11.07 51.926 0.359 7.86 4.22 10.59
3/26/2021 9:30:00 PM 11.04 51.872 0.359 7.85 4.27 10.57
3/26/2021 9:45:00 PM 11 51.8 0.36 7.85 5.21 10.57
3/26/2021 10:00:00 PM 10.97 51.746 0.36 7.84 4.33 10.56
3/26/2021 10:15:00 PM 10.93 51.674 0.36 7.83 4.14 10.55
3/26/2021 10:30:00 PM 10.89 51.602 0.36 7.82 4.32 10.54
3/26/2021 10:45:00 PM 10.84 51.512 0.361 7.81 4.08 10.55
3/26/2021 11:00:00 PM 10.79 51.422 0.361 7.81 4.21 10.55
3/26/2021 11:15:00 PM 10.75 51.35 0.361 7.8 4.55 10.54
3/26/2021 11:30:00 PM 10.67 51.206 0.361 7.79 4.11 10.56
3/26/2021 11:45:00 PM 10.6 51.08 0.362 7.79 4.07 10.56
3/27/2021 12:00:00 AM 10.53 50.954 0.362 7.78 4.16 10.57
3/27/2021 12:15:00 AM 10.46 50.828 0.362 7.78 4.26 10.58
3/27/2021 12:30:00 AM 10.4 50.72 0.363 7.78 4.19 10.59
3/27/2021 12:45:00 AM 10.35 50.63 0.363 7.77 3.93 10.6
3/27/2021 1:00:00 AM 10.28 50.504 0.363 7.77 4.15 10.61
3/27/2021 1:15:00 AM 10.21 50.378 0.363 7.77 4.07 10.62
3/27/2021 1:30:00 AM 10.18 50.324 0.363 7.77 4.13 10.63
3/27/2021 1:45:00 AM 10.14 50.252 0.364 7.77 4.11 10.65
3/27/2021 2:00:00 AM 10.09 50.162 0.364 7.77 4.16 10.66
3/27/2021 2:15:00 AM 10.04 50.072 0.364 7.76 5.34 10.67
3/27/2021 2:30:00 AM 9.97 49.946 0.364 7.76 4.56 10.68
3/27/2021 2:45:00 AM 9.91 49.838 0.364 7.76 4.24 10.7
3/27/2021 3:00:00 AM 9.87 49.766 0.364 7.76 4.53 10.72
3/27/2021 3:15:00 AM 9.82 49.676 0.364 7.76 4.24 10.73
3/27/2021 3:30:00 AM 9.77 49.586 0.364 7.76 4.55 10.75
3/27/2021 3:45:00 AM 9.72 49.496 0.365 7.75 4.32 10.77
3/27/2021 4:00:00 AM 9.68 49.424 0.365 7.75 4.32 10.78
3/27/2021 4:15:00 AM 9.64 49.352 0.365 7.75 4.08 10.78
3/27/2021 4:30:00 AM 9.6 49.28 0.366 7.75 4.26 10.8
3/27/2021 4:45:00 AM 9.55 49.19 0.365 7.75 4.08 10.81
3/27/2021 5:00:00 AM 9.51 49.118 0.366 7.75 4.31 10.83
3/27/2021 5:15:00 AM 9.47 49.046 0.366 7.75 4.05 10.83
3/27/2021 5:30:00 AM 9.42 48.956 0.366 7.75 4.1 10.85
3/27/2021 5:45:00 AM 9.38 48.884 0.366 7.75 4.06 10.86
3/27/2021 6:00:00 AM 9.33 48.794 0.366 7.74 3.96 10.87
3/27/2021 6:15:00 AM 9.28 48.704 0.366 7.74 4.22 10.88
3/27/2021 6:30:00 AM 9.24 48.632 0.366 7.74 4.23 10.9
3/27/2021 6:45:00 AM 9.2 48.56 0.367 7.74 4.09 10.91
3/27/2021 7:00:00 AM 9.15 48.47 0.367 7.74 4.34 10.92
3/27/2021 7:15:00 AM 9.1 48.38 0.367 7.74 4.25 10.94
3/27/2021 7:30:00 AM 9.07 48.326 0.367 7.74 4.24 10.96
3/27/2021 7:45:00 AM 9.03 48.254 0.368 7.75 4.13 11.02
3/27/2021 8:00:00 AM 8.99 48.182 0.368 7.75 4.11 11.07
3/27/2021 8:15:00 AM 8.97 48.146 0.368 7.77 4.18 11.14
3/27/2021 8:30:00 AM 8.93 48.074 0.368 7.78 4.25 11.2
3/27/2021 8:45:00 AM 8.93 48.074 0.368 7.78 4.12 11.26
3/27/2021 9:00:00 AM 8.93 48.074 0.368 7.8 4.24 11.33
3/27/2021 9:15:00 AM 8.95 48.11 0.368 7.81 4.02 11.4
3/27/2021 9:30:00 AM 8.97 48.146 0.368 7.82 4.15 11.46
3/27/2021 9:45:00 AM 9.02 48.236 0.368 7.83 4 11.52
3/27/2021 10:00:00 AM 9.09 48.362 0.368 7.85 3.87 11.58
3/27/2021 10:15:00 AM 9.16 48.488 0.368 7.86 4.31 11.61
3/27/2021 10:30:00 AM 9.23 48.614 0.367 7.87 4.08 11.61
3/27/2021 10:45:00 AM 9.28 48.704 0.368 7.88 4.07 11.63
3/27/2021 11:00:00 AM 9.38 48.884 0.368 7.89 4.34 11.64
3/27/2021 11:15:00 AM 9.44 48.992 0.368 7.9 3.87 11.65
3/27/2021 11:30:00 AM 9.5 49.1 0.368 7.91 4.03 11.66
3/27/2021 11:45:00 AM 9.6 49.28 0.368 7.92 3.9 11.65
3/27/2021 12:00:00 PM 9.76 49.568 0.368 7.92 3.95 11.65
3/27/2021 12:15:00 PM 9.9 49.82 0.368 7.93 4.02 11.65
3/27/2021 12:30:00 PM 10.04 50.072 0.368 7.95 3.98 11.66
3/27/2021 12:45:00 PM 10.18 50.324 0.368 7.96 3.9 11.68
3/27/2021 1:00:00 PM 10.36 50.648 0.368 7.97 3.96 11.69
3/27/2021 1:15:00 PM 10.57 51.026 0.368 7.99 4.1 11.7
3/27/2021 1:30:00 PM 10.72 51.296 0.369 8 4.11 11.68
3/27/2021 1:45:00 PM 10.89 51.602 0.368 8.02 3.96 11.66
3/27/2021 2:00:00 PM 11.08 51.944 0.368 8.03 3.95 11.65
3/27/2021 2:15:00 PM 11.25 52.25 0.369 8.04 3.89 11.63
3/27/2021 2:30:00 PM 11.33 52.394 0.369 8.05 3.88 11.61
3/27/2021 2:45:00 PM 11.4 52.52 0.369 8.06 3.82 11.58
3/27/2021 3:00:00 PM 11.53 52.754 0.369 8.07 3.85 11.56
3/27/2021 3:15:00 PM 11.59 52.862 0.369 8.08 3.88 11.53
3/27/2021 3:30:00 PM 11.63 52.934 0.369 8.09 3.78 11.51
3/27/2021 3:45:00 PM 11.66 52.988 0.369 8.09 3.8 11.47
3/27/2021 4:00:00 PM 11.69 53.042 0.369 8.1 3.93 11.45
3/27/2021 4:15:00 PM 11.7 53.06 0.369 8.1 3.81 11.42
3/27/2021 4:30:00 PM 11.73 53.114 0.37 8.11 3.99 11.4
3/27/2021 4:45:00 PM 11.75 53.15 0.37 8.11 4.06 11.37
3/27/2021 5:00:00 PM 11.79 53.222 0.37 8.11 3.84 11.35
3/27/2021 5:15:00 PM 11.77 53.186 0.37 8.11 3.93 11.32
3/27/2021 5:30:00 PM 11.77 53.186 0.37 8.11 3.88 11.29
3/27/2021 5:45:00 PM 11.77 53.186 0.37 8.1 3.94 11.26
3/27/2021 6:00:00 PM 11.73 53.114 0.37 8.1 3.87 11.21
3/27/2021 6:15:00 PM 11.7 53.06 0.37 8.08 4.06 11.16
3/27/2021 6:30:00 PM 11.65 52.97 0.37 8.07 3.92 11.1
3/27/2021 6:45:00 PM 11.6 52.88 0.37 8.05 3.94 11.03
3/27/2021 7:00:00 PM 11.54 52.772 0.371 8.03 3.97 10.96
3/27/2021 7:15:00 PM 11.49 52.682 0.371 8.01 4.12 10.89
3/27/2021 7:30:00 PM 11.43 52.574 0.371 7.98 3.86 10.81
3/27/2021 7:45:00 PM 11.37 52.466 0.371 7.96 3.85 10.76
3/27/2021 8:00:00 PM 11.32 52.376 0.371 7.94 3.94 10.7
3/27/2021 8:15:00 PM 11.28 52.304 0.372 7.92 3.96 10.66
3/27/2021 8:30:00 PM 11.24 52.232 0.372 7.91 4.09 10.63
3/27/2021 8:45:00 PM 11.21 52.178 0.372 7.9 3.99 10.6
3/27/2021 9:00:00 PM 11.17 52.106 0.372 7.88 4.29 10.58
3/27/2021 9:15:00 PM 11.15 52.07 0.373 7.87 3.9 10.55
3/27/2021 9:30:00 PM 11.11 51.998 0.373 7.86 4.14 10.54
3/27/2021 9:45:00 PM 11.05 51.89 0.373 7.85 4.06 10.53
3/27/2021 10:00:00 PM 11 51.8 0.373 7.84 3.81 10.52
3/27/2021 10:15:00 PM 10.94 51.692 0.373 7.83 4.07 10.51
3/27/2021 10:30:00 PM 10.88 51.584 0.373 7.83 4.02 10.5
3/27/2021 10:45:00 PM 10.81 51.458 0.373 7.82 4.2 10.5
3/27/2021 11:00:00 PM 10.75 51.35 0.373 7.81 4.23 10.51
3/27/2021 11:15:00 PM 10.68 51.224 0.374 7.81 4.17 10.51
3/27/2021 11:30:00 PM 10.62 51.116 0.374 7.8 3.89 10.51
3/27/2021 11:45:00 PM 10.55 50.99 0.374 7.8 4.16 10.51
3/28/2021 12:00:00 AM 10.48 50.864 0.374 7.79 4.25 10.52
3/28/2021 12:15:00 AM 10.41 50.738 0.374 7.79 3.85 10.53
3/28/2021 12:30:00 AM 10.34 50.612 0.375 7.78 3.98 10.54
3/28/2021 12:45:00 AM 10.27 50.486 0.375 7.78 4.21 10.55
3/28/2021 1:00:00 AM 10.2 50.36 0.375 7.78 4.17 10.56
3/28/2021 1:15:00 AM 10.13 50.234 0.375 7.78 4.14 10.58
3/28/2021 1:30:00 AM 10.06 50.108 0.375 7.77 4.17 10.59
3/28/2021 1:45:00 AM 10 50 0.376 7.77 4.06 10.61
3/28/2021 2:00:00 AM 9.93 49.874 0.376 7.77 4.13 10.62
3/28/2021 2:15:00 AM 9.86 49.748 0.376 7.77 4.03 10.63
3/28/2021 2:30:00 AM 9.8 49.64 0.376 7.77 4.02 10.64
3/28/2021 2:45:00 AM 9.75 49.55 0.376 7.77 4.11 10.65
3/28/2021 3:00:00 AM 9.7 49.46 0.377 7.76 4.02 10.66
3/28/2021 3:15:00 AM 9.64 49.352 0.377 7.76 4.24 10.68
3/28/2021 3:30:00 AM 9.58 49.244 0.377 7.76 4.09 10.69
3/28/2021 3:45:00 AM 9.53 49.154 0.377 7.76 4.16 10.7
3/28/2021 4:00:00 AM 9.47 49.046 0.378 7.76 4.16 10.71
3/28/2021 4:15:00 AM 9.42 48.956 0.378 7.75 4.07 10.72
3/28/2021 4:30:00 AM 9.37 48.866 0.378 7.75 4.15 10.74
3/28/2021 4:45:00 AM 9.33 48.794 0.379 7.75 4.14 10.75
3/28/2021 5:00:00 AM 9.28 48.704 0.379 7.76 4.26 10.76
3/28/2021 5:15:00 AM 9.23 48.614 0.379 7.75 4.13 10.77
3/28/2021 5:30:00 AM 9.19 48.542 0.379 7.75 4.16 10.79
3/28/2021 5:45:00 AM 9.15 48.47 0.379 7.75 4.19 10.8
3/28/2021 6:00:00 AM 9.12 48.416 0.379 7.75 4.28 10.81
3/28/2021 6:15:00 AM 9.09 48.362 0.379 7.75 4.35 10.82
3/28/2021 6:30:00 AM 9.05 48.29 0.379 7.75 4.15 10.83
3/28/2021 6:45:00 AM 9.02 48.236 0.379 7.75 4.04 10.84
3/28/2021 7:00:00 AM 8.99 48.182 0.379 7.75 4.11 10.86
3/28/2021 7:15:00 AM 8.96 48.128 0.378 7.75 4.02 10.86
3/28/2021 7:30:00 AM 8.94 48.092 0.377 7.75 4.15 10.87
3/28/2021 7:45:00 AM 8.92 48.056 0.376 7.75 5.33 10.89
3/28/2021 8:00:00 AM 8.91 48.038 0.377 7.74 4.24 10.9
3/28/2021 8:15:00 AM 8.91 48.038 0.375 7.75 4.43 10.92
3/28/2021 8:30:00 AM 8.91 48.038 0.374 7.75 4.31 10.93
3/28/2021 8:45:00 AM 8.92 48.056 0.374 7.75 4.25 10.95
3/28/2021 9:00:00 AM 8.93 48.074 0.374 7.75 4.39 10.97
3/28/2021 9:15:00 AM 8.93 48.074 0.373 7.76 4.26 10.98
3/28/2021 9:30:00 AM 8.94 48.092 0.373 7.76 4.39 10.98
3/28/2021 9:45:00 AM 8.97 48.146 0.373 7.77 4.6 11.02
3/28/2021 10:00:00 AM 8.99 48.182 0.373 7.78 4.41 11.05
3/28/2021 10:15:00 AM 9.01 48.218 0.373 7.78 4.38 11.06
3/28/2021 10:30:00 AM 9.04 48.272 0.373 7.79 4.8 11.09
3/28/2021 10:45:00 AM 9.07 48.326 0.372 7.8 5.45 11.14
3/28/2021 11:00:00 AM 9.11 48.398 0.372 7.81 4.72 11.18
3/28/2021 11:15:00 AM 9.17 48.506 0.371 7.82 4.85 11.23
3/28/2021 11:30:00 AM 9.24 48.632 0.371 7.84 4.75 11.29
3/28/2021 11:45:00 AM 9.3 48.74 0.372 7.85 4.6 11.32
3/28/2021 12:00:00 PM 9.36 48.848 0.371 7.87 4.65 11.34
3/28/2021 12:15:00 PM 9.38 48.884 0.371 7.87 5.16 11.32
3/28/2021 12:30:00 PM 9.43 48.974 0.371 7.87 4.93 11.32
3/28/2021 12:45:00 PM 9.48 49.064 0.371 7.88 4.64 11.34
3/28/2021 1:00:00 PM 9.55 49.19 0.371 7.89 4.82 11.36
3/28/2021 1:15:00 PM 9.58 49.244 0.372 7.9 4.9 11.35
3/28/2021 1:30:00 PM 9.6 49.28 0.373 7.9 4.96 11.31
3/28/2021 1:45:00 PM 9.64 49.352 0.373 7.9 4.71 11.29
3/28/2021 2:00:00 PM 9.67 49.406 0.373 7.89 4.8 11.23
3/28/2021 2:15:00 PM 9.7 49.46 0.373 7.9 4.93 11.23
3/28/2021 2:30:00 PM 9.73 49.514 0.373 7.9 4.87 11.23
3/28/2021 2:45:00 PM 9.75 49.55 0.373 7.91 4.76 11.23
3/28/2021 3:00:00 PM 9.8 49.64 0.371 7.92 4.81 11.25
3/28/2021 3:15:00 PM 9.88 49.784 0.371 7.93 5.45 11.29
3/28/2021 3:30:00 PM 9.98 49.964 0.371 7.94 4.97 11.3
3/28/2021 3:45:00 PM 9.96 49.928 0.371 7.94 5.33 11.28
3/28/2021 4:00:00 PM 9.94 49.892 0.37 7.93 5.15 11.2
3/28/2021 4:15:00 PM 9.93 49.874 0.37 7.93 4.99 11.19
3/28/2021 4:30:00 PM 9.95 49.91 0.369 7.93 5.24 11.2
3/28/2021 4:45:00 PM 9.94 49.892 0.369 7.93 5.39 11.21
3/28/2021 5:00:00 PM 9.95 49.91 0.368 7.94 5.49 11.22
3/28/2021 5:15:00 PM 9.94 49.892 0.367 7.93 5.46 11.16
3/28/2021 5:30:00 PM 9.96 49.928 0.367 7.93 5.52 11.15
3/28/2021 5:45:00 PM 9.96 49.928 0.366 7.92 5.7 11.14
3/28/2021 6:00:00 PM 9.92 49.856 0.366 7.92 5.65 11.09
3/28/2021 6:15:00 PM 9.92 49.856 0.365 7.91 5.64 11.09
3/28/2021 6:30:00 PM 9.88 49.784 0.364 7.91 5.83 11.08
3/28/2021 6:45:00 PM 9.83 49.694 0.365 7.9 5.75 11.05
3/28/2021 7:00:00 PM 9.78 49.604 0.365 7.89 6.61 11.02
3/28/2021 7:15:00 PM 9.73 49.514 0.365 7.88 6.32 10.98
3/28/2021 7:30:00 PM 9.66 49.388 0.365 7.87 6.26 10.96
3/28/2021 7:45:00 PM 9.6 49.28 0.365 7.86 7 10.93
3/28/2021 8:00:00 PM 9.54 49.172 0.364 7.85 6.36 10.92
3/28/2021 8:15:00 PM 9.49 49.082 0.364 7.84 6.21 10.9
3/28/2021 8:30:00 PM 9.43 48.974 0.364 7.83 6.5 10.89
3/28/2021 8:45:00 PM 9.37 48.866 0.364 7.83 6.63 10.89
3/28/2021 9:00:00 PM 9.29 48.722 0.364 7.82 6.61 10.89
3/28/2021 9:15:00 PM 9.22 48.596 0.363 7.82 12.29 10.89
3/28/2021 9:30:00 PM 9.14 48.452 0.364 7.81 6.92 10.9
3/28/2021 9:45:00 PM 9.08 48.344 0.363 7.81 6.88 10.9
3/28/2021 10:00:00 PM 9.03 48.254 0.363 7.81 6.87 10.91
3/28/2021 10:15:00 PM 8.98 48.164 0.363 7.8 7.45 10.91
3/28/2021 10:30:00 PM 8.92 48.056 0.363 7.8 7.63 10.92
3/28/2021 10:45:00 PM 8.87 47.966 0.363 7.8 7.12 10.93
3/28/2021 11:00:00 PM 8.82 47.876 0.363 7.79 6.7 10.93
3/28/2021 11:15:00 PM 8.76 47.768 0.363 7.79 6.96 10.95
3/28/2021 11:30:00 PM 8.71 47.678 0.362 7.79 6.57 10.96
3/28/2021 11:45:00 PM 8.66 47.588 0.363 7.79 7.07 10.97
3/29/2021 12:00:00 AM 8.61 47.498 0.363 7.79 6.82 10.99
3/29/2021 12:15:00 AM 8.56 47.408 0.363 7.79 6.57 11
3/29/2021 12:30:00 AM 8.49 47.282 0.363 7.78 6.46 11.02
3/29/2021 12:45:00 AM 8.45 47.21 0.364 7.78 6.56 11.03
3/29/2021 1:00:00 AM 8.38 47.084 0.364 7.78 8.9 11.05
3/29/2021 1:15:00 AM 8.34 47.012 0.365 7.78 6.2 11.06
3/29/2021 1:30:00 AM 8.29 46.922 0.365 7.78 6.12 11.08
3/29/2021 1:45:00 AM 8.23 46.814 0.365 7.78 6.42 11.09
3/29/2021 2:00:00 AM 8.14 46.652 0.364 7.78 6.12 11.12
3/29/2021 2:15:00 AM 8.08 46.544 0.364 7.78 6.77 11.13
3/29/2021 2:30:00 AM 8.03 46.454 0.364 7.78 6.43 11.15
3/29/2021 2:45:00 AM 7.98 46.364 0.364 7.78 6.27 11.17
3/29/2021 3:00:00 AM 7.94 46.292 0.363 7.78 6.62 11.19
3/29/2021 3:15:00 AM 7.89 46.202 0.363 7.77 6.18 11.2
3/29/2021 3:30:00 AM 7.84 46.112 0.363 7.77 6.81 11.22
3/29/2021 3:45:00 AM 7.75 45.95 0.362 7.77 6.45 11.24
3/29/2021 4:00:00 AM 7.68 45.824 0.362 7.77 6.15 11.26
3/29/2021 4:15:00 AM 7.62 45.716 0.361 7.77 6.33 11.29
3/29/2021 4:30:00 AM 7.57 45.626 0.361 7.77 6.44 11.3
3/29/2021 4:45:00 AM 7.52 45.536 0.36 7.77 6.57 11.33
3/29/2021 5:00:00 AM 7.46 45.428 0.36 7.77 6.47 11.34
3/29/2021 5:15:00 AM 7.41 45.338 0.36 7.77 6.29 11.36
3/29/2021 5:30:00 AM 7.35 45.23 0.36 7.77 6.47 11.39
3/29/2021 5:45:00 AM 7.28 45.104 0.359 7.77 6.48 11.41
3/29/2021 6:00:00 AM 7.22 44.996 0.358 7.77 6.42 11.43
3/29/2021 6:15:00 AM 7.16 44.888 0.358 7.76 6.46 11.45
3/29/2021 6:30:00 AM 7.1 44.78 0.358 7.76 6.44 11.47
3/29/2021 6:45:00 AM 7.05 44.69 0.358 7.76 6.96 11.49
3/29/2021 7:00:00 AM 7 44.6 0.358 7.76 6.64 11.5
3/29/2021 7:15:00 AM 6.95 44.51 0.357 7.75 6.48 11.53
3/29/2021 7:30:00 AM 6.91 44.438 0.357 7.76 6.09 11.55
3/29/2021 7:45:00 AM 6.87 44.366 0.357 7.76 5.92 11.57
3/29/2021 8:00:00 AM 6.83 44.294 0.356 7.76 6.04 11.6
3/29/2021 8:15:00 AM 6.8 44.24 0.356 7.76 6.12 11.64
3/29/2021 8:30:00 AM 6.76 44.168 0.355 7.76 5.99 11.67
3/29/2021 8:45:00 AM 6.72 44.096 0.355 7.77 5.71 11.7
3/29/2021 9:00:00 AM 6.69 44.042 0.354 7.77 5.73 11.75
3/29/2021 9:15:00 AM 6.66 43.988 0.354 7.78 6.14 11.79
3/29/2021 9:30:00 AM 6.64 43.952 0.353 7.78 5.54 11.85
3/29/2021 9:45:00 AM 6.62 43.916 0.353 7.79 5.75 11.88
3/29/2021 10:00:00 AM 6.6 43.88 0.352 7.8 5.53 11.93
3/29/2021 10:15:00 AM 6.6 43.88 0.352 7.8 5.35 11.98
3/29/2021 10:30:00 AM 6.59 43.862 0.351 7.81 5.57 12.03
3/29/2021 10:45:00 AM 6.61 43.898 0.35 7.82 5.45 12.09
3/29/2021 11:00:00 AM 6.59 43.862 0.35 7.83 5.3 12.14
3/29/2021 11:15:00 AM 6.63 43.934 0.349 7.84 5.46 12.19
3/29/2021 11:30:00 AM 6.66 43.988 0.348 7.86 5.39 12.24
3/29/2021 11:45:00 AM 6.67 44.006 0.347 7.86 5.4 12.28
3/29/2021 12:00:00 PM 6.78 44.204 0.346 7.87 5.36 12.31
3/29/2021 12:15:00 PM 6.88 44.384 0.345 7.88 5.13 12.33
3/29/2021 12:30:00 PM 6.96 44.528 0.344 7.88 5.33 12.34
3/29/2021 12:45:00 PM 7.04 44.672 0.343 7.89 5.3 12.36
3/29/2021 1:00:00 PM 7.22 44.996 0.342 7.9 5.31 12.36
3/29/2021 1:15:00 PM 7.38 45.284 0.341 7.9 5.03 12.35
3/29/2021 1:30:00 PM 7.58 45.644 0.34 7.91 5.25 12.32
3/29/2021 1:45:00 PM 7.79 46.022 0.34 7.91 5.14 12.3
3/29/2021 2:00:00 PM 7.98 46.364 0.339 7.92 5 12.28
3/29/2021 2:15:00 PM 8.17 46.706 0.338 7.92 5.03 12.26
3/29/2021 2:30:00 PM 8.4 47.12 0.338 7.93 5.07 12.23
3/29/2021 2:45:00 PM 8.6 47.48 0.337 7.93 4.94 12.2
3/29/2021 3:00:00 PM 8.78 47.804 0.336 7.94 5.31 12.17
3/29/2021 3:15:00 PM 8.9 48.02 0.336 7.95 4.86 12.13
3/29/2021 3:30:00 PM 9 48.2 0.335 7.95 5.25 12.11
3/29/2021 3:45:00 PM 9.1 48.38 0.335 7.95 4.97 12.09
3/29/2021 4:00:00 PM 9.16 48.488 0.334 7.96 5.08 12.08
3/29/2021 4:15:00 PM 9.19 48.542 0.334 7.96 4.95 12.04
3/29/2021 4:30:00 PM 9.21 48.578 0.334 7.96 5.01 12.01
3/29/2021 4:45:00 PM 9.21 48.578 0.334 7.97 5.02 11.99
3/29/2021 5:00:00 PM 9.19 48.542 0.334 7.97 4.92 11.96
3/29/2021 5:15:00 PM 9.14 48.452 0.334 7.97 5.05 11.93
3/29/2021 5:30:00 PM 9.1 48.38 0.333 7.96 4.82 11.9
3/29/2021 5:45:00 PM 9.03 48.254 0.334 7.96 4.83 11.86
3/29/2021 6:00:00 PM 8.97 48.146 0.333 7.95 4.81 11.82
3/29/2021 6:15:00 PM 8.91 48.038 0.334 7.94 4.76 11.78
3/29/2021 6:30:00 PM 8.85 47.93 0.334 7.93 4.76 11.74
3/29/2021 6:45:00 PM 8.79 47.822 0.333 7.92 4.76 11.7
3/29/2021 7:00:00 PM 8.73 47.714 0.333 7.9 4.94 11.66
3/29/2021 7:15:00 PM 8.67 47.606 0.333 7.89 4.87 11.62
3/29/2021 7:30:00 PM 8.59 47.462 0.332 7.87 5.17 11.57
3/29/2021 7:45:00 PM 8.51 47.318 0.332 7.85 5.08 11.53
3/29/2021 8:00:00 PM 8.44 47.192 0.332 7.84 4.97 11.49
3/29/2021 8:15:00 PM 8.38 47.084 0.332 7.83 4.81 11.47
3/29/2021 8:30:00 PM 8.31 46.958 0.332 7.82 4.96 11.45
3/29/2021 8:45:00 PM 8.25 46.85 0.332 7.81 5.06 11.44
3/29/2021 9:00:00 PM 8.18 46.724 0.331 7.8 5.16 11.42
3/29/2021 9:15:00 PM 8.11 46.598 0.331 7.79 4.85 11.41
3/29/2021 9:30:00 PM 8.05 46.49 0.331 7.78 4.99 11.41
3/29/2021 9:45:00 PM 7.97 46.346 0.331 7.78 4.83 11.4
3/29/2021 10:00:00 PM 7.9 46.22 0.331 7.77 5.08 11.4
3/29/2021 10:15:00 PM 7.83 46.094 0.331 7.76 4.87 11.41
3/29/2021 10:30:00 PM 7.76 45.968 0.331 7.76 5.04 11.42
3/29/2021 10:45:00 PM 7.68 45.824 0.331 7.75 4.87 11.43
3/29/2021 11:00:00 PM 7.61 45.698 0.331 7.75 5.01 11.45
3/29/2021 11:15:00 PM 7.53 45.554 0.331 7.75 5.19 11.46
3/29/2021 11:30:00 PM 7.44 45.392 0.331 7.74 4.91 11.48
3/29/2021 11:45:00 PM 7.35 45.23 0.331 7.74 4.81 11.5
3/30/2021 12:00:00 AM 7.26 45.068 0.331 7.73 4.82 11.52
3/30/2021 12:15:00 AM 7.17 44.906 0.331 7.73 4.9 11.54
3/30/2021 12:30:00 AM 7.08 44.744 0.331 7.73 4.52 11.56
3/30/2021 12:45:00 AM 7 44.6 0.331 7.73 4.74 11.58
3/30/2021 1:00:00 AM 6.92 44.456 0.331 7.72 4.66 11.61
3/30/2021 1:15:00 AM 6.84 44.312 0.331 7.72 4.73 11.62
3/30/2021 1:30:00 AM 6.77 44.186 0.331 7.72 4.73 11.64
3/30/2021 1:45:00 AM 6.69 44.042 0.331 7.72 4.54 11.66
3/30/2021 2:00:00 AM 6.62 43.916 0.331 7.72 4.69 11.69
3/30/2021 2:15:00 AM 6.55 43.79 0.331 7.71 4.9 11.7
3/30/2021 2:30:00 AM 6.48 43.664 0.331 7.71 4.7 11.72
3/30/2021 2:45:00 AM 6.41 43.538 0.331 7.71 4.77 11.74
3/30/2021 3:00:00 AM 6.34 43.412 0.331 7.71 4.59 11.76
3/30/2021 3:15:00 AM 6.27 43.286 0.331 7.71 4.54 11.78
3/30/2021 3:30:00 AM 6.21 43.178 0.33 7.7 5.57 11.8
3/30/2021 3:45:00 AM 6.14 43.052 0.33 7.71 4.59 11.82
3/30/2021 4:00:00 AM 6.06 42.908 0.329 7.7 4.58 11.86
3/30/2021 4:15:00 AM 5.99 42.782 0.329 7.7 5.47 11.88
3/30/2021 4:30:00 AM 5.91 42.638 0.329 7.7 4.71 11.91
3/30/2021 4:45:00 AM 5.83 42.494 0.329 7.7 4.53 11.93
3/30/2021 5:00:00 AM 5.75 42.35 0.329 7.69 4.41 11.95
3/30/2021 5:15:00 AM 5.67 42.206 0.329 7.69 4.85 11.98
3/30/2021 5:30:00 AM 5.59 42.062 0.329 7.69 4.7 12.01
3/30/2021 5:45:00 AM 5.5 41.9 0.329 7.69 4.58 12.04
3/30/2021 6:00:00 AM 5.42 41.756 0.329 7.69 4.36 12.06
3/30/2021 6:15:00 AM 5.35 41.63 0.329 7.69 4.62 12.09
3/30/2021 6:30:00 AM 5.27 41.486 0.33 7.69 4.66 12.12
3/30/2021 6:45:00 AM 5.2 41.36 0.33 7.69 4.73 12.14
3/30/2021 7:00:00 AM 5.12 41.216 0.329 7.69 4.54 12.18
3/30/2021 7:15:00 AM 5.06 41.108 0.33 7.69 4.55 12.2
3/30/2021 7:30:00 AM 4.99 40.982 0.33 7.69 4.66 12.24
3/30/2021 7:45:00 AM 4.93 40.874 0.33 7.69 4.42 12.29
3/30/2021 8:00:00 AM 4.88 40.784 0.33 7.7 4.58 12.33
3/30/2021 8:15:00 AM 4.84 40.712 0.33 7.7 4.52 12.38
3/30/2021 8:30:00 AM 4.81 40.658 0.33 7.71 4.55 12.43
3/30/2021 8:45:00 AM 4.84 40.712 0.33 7.72 4.46 12.49
3/30/2021 9:00:00 AM 4.84 40.712 0.33 7.73 4.65 12.53
3/30/2021 9:15:00 AM 4.84 40.712 0.33 7.73 4.43 12.57
3/30/2021 9:30:00 AM 4.87 40.766 0.33 7.74 4.22 12.61
3/30/2021 9:45:00 AM 4.92 40.856 0.33 7.74 4.3 12.64
3/30/2021 10:00:00 AM 4.98 40.964 0.33 7.75 4.56 12.66
3/30/2021 10:15:00 AM 5.07 41.126 0.329 7.76 4.38 12.68
3/30/2021 10:30:00 AM 5.14 41.252 0.329 7.76 4.5 12.69
3/30/2021 10:45:00 AM 5.2 41.36 0.33 7.77 5.1 12.71
3/30/2021 11:00:00 AM 5.33 41.594 0.33 7.78 4.43 12.72
3/30/2021 11:15:00 AM 5.47 41.846 0.329 7.79 4.34 12.72
3/30/2021 11:30:00 AM 5.63 42.134 0.33 7.79 4.17 12.71
3/30/2021 11:45:00 AM 5.79 42.422 0.33 7.81 4.36 12.71
3/30/2021 12:00:00 PM 5.98 42.764 0.33 7.82 4.14 12.69
3/30/2021 12:15:00 PM 6.17 43.106 0.329 7.82 4.12 12.67
3/30/2021 12:30:00 PM 6.39 43.502 0.329 7.83 4.04 12.64
3/30/2021 12:45:00 PM 6.6 43.88 0.33 7.84 4.13 12.62
3/30/2021 1:00:00 PM 6.83 44.294 0.331 7.84 4.5 12.58
3/30/2021 1:15:00 PM 7.08 44.744 0.331 7.85 4.64 12.54
3/30/2021 1:30:00 PM 7.35 45.23 0.331 7.86 4.11 12.5
3/30/2021 1:45:00 PM 7.62 45.716 0.33 7.87 4.07 12.46
3/30/2021 2:00:00 PM 7.92 46.256 0.329 7.88 4.08 12.43
3/30/2021 2:15:00 PM 8.17 46.706 0.33 7.89 4.04 12.38
3/30/2021 2:30:00 PM 8.45 47.21 0.33 7.89 4.18 12.32
3/30/2021 2:45:00 PM 8.7 47.66 0.329 7.9 3.9 12.29
3/30/2021 3:00:00 PM 8.9 48.02 0.33 7.91 4.03 12.24
3/30/2021 3:15:00 PM 9.09 48.362 0.329 7.92 4.04 12.22
3/30/2021 3:30:00 PM 9.25 48.65 0.329 7.94 3.92 12.16
3/30/2021 3:45:00 PM 9.36 48.848 0.329 7.94 4.02 12.11
3/30/2021 4:00:00 PM 9.49 49.082 0.329 7.95 3.97 12.08
3/30/2021 4:15:00 PM 9.63 49.334 0.329 7.96 3.95 12.04
3/30/2021 4:30:00 PM 9.65 49.37 0.329 7.96 3.96 11.99
3/30/2021 4:45:00 PM 9.69 49.442 0.329 7.97 3.88 11.95
3/30/2021 5:00:00 PM 9.7 49.46 0.329 7.97 4 11.92
3/30/2021 5:15:00 PM 9.74 49.532 0.329 7.97 3.91 11.88
3/30/2021 5:30:00 PM 9.7 49.46 0.329 7.97 3.93 11.84
3/30/2021 5:45:00 PM 9.69 49.442 0.329 7.97 4.3 11.8
3/30/2021 6:00:00 PM 9.65 49.37 0.33 7.97 3.97 11.75
3/30/2021 6:15:00 PM 9.63 49.334 0.329 7.96 3.91 11.71
3/30/2021 6:30:00 PM 9.6 49.28 0.33 7.95 3.93 11.64
3/30/2021 6:45:00 PM 9.57 49.226 0.33 7.94 3.83 11.58
3/30/2021 7:00:00 PM 9.54 49.172 0.33 7.93 3.95 11.53
3/30/2021 7:15:00 PM 9.5 49.1 0.33 7.91 4.18 11.46
3/30/2021 7:30:00 PM 9.46 49.028 0.33 7.9 4.12 11.4
3/30/2021 7:45:00 PM 9.42 48.956 0.331 7.88 4.14 11.33
3/30/2021 8:00:00 PM 9.38 48.884 0.331 7.87 11.28 11.28
3/30/2021 8:15:00 PM 9.34 48.812 0.331 7.85 3.96 11.23
3/30/2021 8:30:00 PM 9.31 48.758 0.331 7.84 4.02 11.2
3/30/2021 8:45:00 PM 9.28 48.704 0.331 7.83 4.05 11.17
3/30/2021 9:00:00 PM 9.25 48.65 0.331 7.82 4.18 11.14
3/30/2021 9:15:00 PM 9.22 48.596 0.331 7.81 4.14 11.12
3/30/2021 9:30:00 PM 9.19 48.542 0.331 7.81 4.22 11.1
3/30/2021 9:45:00 PM 9.17 48.506 0.331 7.8 4.07 11.09
3/30/2021 10:00:00 PM 9.15 48.47 0.332 7.79 4.03 11.07
3/30/2021 10:15:00 PM 9.13 48.434 0.332 7.79 4.11 11.06
3/30/2021 10:30:00 PM 9.11 48.398 0.332 7.78 4.11 11.05
3/30/2021 10:45:00 PM 9.08 48.344 0.332 7.77 4.41 11.04
3/30/2021 11:00:00 PM 9.05 48.29 0.333 7.77 4.03 11.04
3/30/2021 11:15:00 PM 9.02 48.236 0.333 7.76 3.99 11.03
3/30/2021 11:30:00 PM 8.99 48.182 0.333 7.76 4.02 11.03
3/30/2021 11:45:00 PM 8.95 48.11 0.333 7.76 4 11.03
3/31/2021 12:00:00 AM 8.91 48.038 0.333 7.76 4.17 11.04
3/31/2021 12:15:00 AM 8.88 47.984 0.333 7.75 4.23 11.04
3/31/2021 12:30:00 AM 8.84 47.912 0.333 7.75 4.08 11.05
3/31/2021 12:45:00 AM 8.81 47.858 0.333 7.75 3.99 11.06
3/31/2021 1:00:00 AM 8.77 47.786 0.333 7.74 4.49 11.07
3/31/2021 1:15:00 AM 8.73 47.714 0.333 7.74 3.99 11.07
3/31/2021 1:30:00 AM 8.69 47.642 0.334 7.74 4.15 11.08
3/31/2021 1:45:00 AM 8.66 47.588 0.334 7.74 4.48 11.09
3/31/2021 2:00:00 AM 8.64 47.552 0.334 7.73 4 11.09
3/31/2021 2:15:00 AM 8.61 47.498 0.334 7.73 4.03 11.09
3/31/2021 2:30:00 AM 8.57 47.426 0.334 7.73 4.18 11.09
3/31/2021 2:45:00 AM 8.55 47.39 0.334 7.73 4.23 11.1
3/31/2021 3:00:00 AM 8.53 47.354 0.334 7.72 4.05 11.1
3/31/2021 3:15:00 AM 8.5 47.3 0.335 7.72 4.02 11.1
3/31/2021 3:30:00 AM 8.47 47.246 0.335 7.72 4.19 11.11
3/31/2021 3:45:00 AM 8.45 47.21 0.335 7.72 4.01 11.12
3/31/2021 4:00:00 AM 8.42 47.156 0.335 7.72 4.16 11.12
3/31/2021 4:15:00 AM 8.4 47.12 0.335 7.72 4.23 11.13
3/31/2021 4:30:00 AM 8.37 47.066 0.335 7.72 4.2 11.13
3/31/2021 4:45:00 AM 8.35 47.03 0.335 7.71 4.27 11.13
3/31/2021 5:00:00 AM 8.32 46.976 0.336 7.71 4.14 11.15
3/31/2021 5:15:00 AM 8.29 46.922 0.336 7.71 4.12 11.16
3/31/2021 5:30:00 AM 8.25 46.85 0.336 7.71 4.1 11.16
3/31/2021 5:45:00 AM 8.22 46.796 0.336 7.71 4.05 11.17
3/31/2021 6:00:00 AM 8.18 46.724 0.336 7.71 4.02 11.18
3/31/2021 6:15:00 AM 8.15 46.67 0.335 7.71 4.04 11.19
3/31/2021 6:30:00 AM 8.11 46.598 0.336 7.71 4.05 11.2
3/31/2021 6:45:00 AM 8.08 46.544 0.336 7.71 4.12 11.22
3/31/2021 7:00:00 AM 8.05 46.49 0.336 7.71 4.01 11.22
3/31/2021 7:15:00 AM 8.03 46.454 0.336 7.71 4.16 11.23
3/31/2021 7:30:00 AM 8.01 46.418 0.336 7.71 4.28 11.25
3/31/2021 7:45:00 AM 7.99 46.382 0.336 7.71 4.19 11.26
3/31/2021 8:00:00 AM 7.97 46.346 0.335 7.71 4.02 11.29
3/31/2021 8:15:00 AM 7.96 46.328 0.335 7.71 3.84 11.3
3/31/2021 8:30:00 AM 7.94 46.292 0.335 7.71 4.04 11.33
3/31/2021 8:45:00 AM 7.93 46.274 0.334 7.71 4.07 11.34
3/31/2021 9:00:00 AM 7.91 46.238 0.333 7.71 3.98 11.35
3/31/2021 9:15:00 AM 7.9 46.22 0.332 7.71 4.1 11.36
3/31/2021 9:30:00 AM 7.89 46.202 0.331 7.71 4.18 11.38
3/31/2021 9:45:00 AM 7.89 46.202 0.33 7.72 4.3 11.42
3/31/2021 10:00:00 AM 7.9 46.22 0.33 7.72 4.23 11.46
3/31/2021 10:15:00 AM 7.92 46.256 0.33 7.73 4.24 11.5
3/31/2021 10:30:00 AM 7.92 46.256 0.33 7.74 4.3 11.52
3/31/2021 10:45:00 AM 7.93 46.274 0.33 7.74 4.66 11.53
3/31/2021 11:00:00 AM 7.95 46.31 0.329 7.74 4.56 11.54
3/31/2021 11:15:00 AM 7.96 46.328 0.329 7.75 4.68 11.55
3/31/2021 11:30:00 AM 7.97 46.346 0.329 7.75 4.82 11.54
3/31/2021 11:45:00 AM 7.98 46.364 0.329 7.75 4.93 11.55
3/31/2021 12:00:00 PM 8 46.4 0.329 7.75 4.85 11.56
3/31/2021 12:15:00 PM 8.02 46.436 0.329 7.75 5.78 11.57
3/31/2021 12:30:00 PM 8.03 46.454 0.329 7.76 4.55 11.58
3/31/2021 12:45:00 PM 8.06 46.508 0.329 7.76 5.24 11.59
3/31/2021 1:00:00 PM 8.09 46.562 0.329 7.77 4.64 11.61
3/31/2021 1:15:00 PM 8.12 46.616 0.329 7.77 4.67 11.62
3/31/2021 1:30:00 PM 8.15 46.67 0.329 7.77 4.82 11.61
3/31/2021 1:45:00 PM 8.2 46.76 0.329 7.78 4.83 11.65
3/31/2021 2:00:00 PM 8.23 46.814 0.33 7.79 4.68 11.65
3/31/2021 2:15:00 PM 8.28 46.904 0.33 7.79 4.94 11.65
3/31/2021 2:30:00 PM 8.3 46.94 0.33 7.8 4.67 11.65
3/31/2021 2:45:00 PM 8.32 46.976 0.33 7.79 4.71 11.62
3/31/2021 3:00:00 PM 8.34 47.012 0.33 7.79 4.66 11.6
3/31/2021 3:15:00 PM 8.36 47.048 0.33 7.78 4.84 11.56
3/31/2021 3:30:00 PM 8.38 47.084 0.33 7.78 4.69 11.54
3/31/2021 3:45:00 PM 8.41 47.138 0.329 7.78 4.61 11.54
3/31/2021 4:00:00 PM 8.43 47.174 0.329 7.78 4.58 11.54
3/31/2021 4:15:00 PM 8.46 47.228 0.329 7.78 4.61 11.53
3/31/2021 4:30:00 PM 8.47 47.246 0.329 7.79 4.93 11.51
3/31/2021 4:45:00 PM 8.48 47.264 0.329 7.79 4.72 11.5
3/31/2021 5:00:00 PM 8.5 47.3 0.328 7.79 4.86 11.5
3/31/2021 5:15:00 PM 8.54 47.372 0.327 7.8 4.84 11.53
3/31/2021 5:30:00 PM 8.56 47.408 0.327 7.8 4.73 11.54
3/31/2021 5:45:00 PM 8.61 47.498 0.326 7.81 4.81 11.55
3/31/2021 6:00:00 PM 8.62 47.516 0.326 7.82 4.99 11.55
3/31/2021 6:15:00 PM 8.62 47.516 0.325 7.82 4.98 11.53
3/31/2021 6:30:00 PM 8.62 47.516 0.325 7.81 4.99 11.49
3/31/2021 6:45:00 PM 8.61 47.498 0.325 7.81 4.8 11.45
3/31/2021 7:00:00 PM 8.6 47.48 0.324 7.8 5.01 11.43
3/31/2021 7:15:00 PM 8.58 47.444 0.324 7.79 4.82 11.38
3/31/2021 7:30:00 PM 8.57 47.426 0.324 7.79 5.16 11.35
3/31/2021 7:45:00 PM 8.55 47.39 0.324 7.78 4.89 11.33
3/31/2021 8:00:00 PM 8.53 47.354 0.324 7.78 4.85 11.3
3/31/2021 8:15:00 PM 8.5 47.3 0.324 7.77 4.8 11.29
3/31/2021 8:30:00 PM 8.47 47.246 0.323 7.76 5.07 11.27
3/31/2021 8:45:00 PM 8.43 47.174 0.324 7.76 4.76 11.27
3/31/2021 9:00:00 PM 8.39 47.102 0.324 7.75 5.31 11.26
3/31/2021 9:15:00 PM 8.37 47.066 0.323 7.75 5 11.25
3/31/2021 9:30:00 PM 8.34 47.012 0.324 7.75 4.96 11.24
3/31/2021 9:45:00 PM 8.31 46.958 0.323 7.74 5.3 11.24
3/31/2021 10:00:00 PM 8.28 46.904 0.324 7.74 5.62 11.24
3/31/2021 10:15:00 PM 8.25 46.85 0.324 7.73 5.39 11.24
3/31/2021 10:30:00 PM 8.22 46.796 0.324 7.73 5.31 11.23
3/31/2021 10:45:00 PM 8.19 46.742 0.324 7.73 5.04 11.24
3/31/2021 11:00:00 PM 8.16 46.688 0.324 7.73 5.08 11.25
3/31/2021 11:15:00 PM 8.13 46.634 0.324 7.72 5.05 11.25
3/31/2021 11:30:00 PM 8.1 46.58 0.324 7.72 5.25 11.25
3/31/2021 11:45:00 PM 8.07 46.526 0.324 7.72 5.16 11.25
4/1/2021 12:00:00 AM 8.03 46.454 0.324 7.72 5.13 11.26
4/1/2021 12:15:00 AM 7.98 46.364 0.324 7.72 4.89 11.27
4/1/2021 12:30:00 AM 7.92 46.256 0.324 7.72 5.25 11.27
4/1/2021 12:45:00 AM 7.88 46.184 0.324 7.72 5.08 11.29
4/1/2021 1:00:00 AM 7.84 46.112 0.324 7.72 4.99 11.3
4/1/2021 1:15:00 AM 7.79 46.022 0.324 7.72 5.02 11.31
4/1/2021 1:30:00 AM 7.76 45.968 0.325 7.72 4.88 11.32
4/1/2021 1:45:00 AM 7.73 45.914 0.325 7.72 4.84 11.32
4/1/2021 2:00:00 AM 7.69 45.842 0.326 7.72 5.08 11.33
4/1/2021 2:15:00 AM 7.64 45.752 0.326 7.71 4.92 11.34
4/1/2021 2:30:00 AM 7.6 45.68 0.326 7.72 4.98 11.36
4/1/2021 2:45:00 AM 7.57 45.626 0.326 7.72 4.81 11.37
4/1/2021 3:00:00 AM 7.52 45.536 0.327 7.71 4.94 11.37
4/1/2021 3:15:00 AM 7.48 45.464 0.327 7.71 4.99 11.38
4/1/2021 3:30:00 AM 7.44 45.392 0.327 7.72 5.32 11.39
4/1/2021 3:45:00 AM 7.4 45.32 0.326 7.71 4.92 11.4
4/1/2021 4:00:00 AM 7.36 45.248 0.326 7.71 4.67 11.41
4/1/2021 4:15:00 AM 7.33 45.194 0.326 7.71 4.71 11.42
4/1/2021 4:30:00 AM 7.29 45.122 0.325 7.71 4.49 11.42
4/1/2021 4:45:00 AM 7.26 45.068 0.325 7.71 4.75 11.43
4/1/2021 5:00:00 AM 7.23 45.014 0.325 7.71 4.72 11.44
4/1/2021 5:15:00 AM 7.19 44.942 0.325 7.71 4.51 11.45
4/1/2021 5:30:00 AM 7.16 44.888 0.325 7.71 4.56 11.47
4/1/2021 5:45:00 AM 7.13 44.834 0.325 7.71 4.67 11.47
4/1/2021 6:00:00 AM 7.09 44.762 0.325 7.71 4.71 11.48
4/1/2021 6:15:00 AM 7.06 44.708 0.325 7.71 4.6 11.49
4/1/2021 6:30:00 AM 7.03 44.654 0.324 7.71 4.4 11.51
4/1/2021 6:45:00 AM 7 44.6 0.325 7.71 4.8 11.51
4/1/2021 7:00:00 AM 6.97 44.546 0.325 7.7 4.59 11.52
4/1/2021 7:15:00 AM 6.94 44.492 0.325 7.7 4.7 11.54
4/1/2021 7:30:00 AM 6.91 44.438 0.324 7.71 4.87 11.55
4/1/2021 7:45:00 AM 6.84 44.312 0.324 7.7 4.51 11.57
4/1/2021 8:00:00 AM 6.76 44.168 0.323 7.71 4.42 11.59
4/1/2021 8:15:00 AM 6.7 44.06 0.323 7.71 4.49 11.62
4/1/2021 8:30:00 AM 6.68 44.024 0.323 7.72 4.77 11.67
4/1/2021 8:45:00 AM 6.67 44.006 0.322 7.73 4.5 11.74
4/1/2021 9:00:00 AM 6.68 44.024 0.322 7.74 4.34 11.81
4/1/2021 9:15:00 AM 6.68 44.024 0.322 7.75 4.56 11.87
4/1/2021 9:30:00 AM 6.66 43.988 0.322 7.75 4.61 11.91
4/1/2021 9:45:00 AM 6.64 43.952 0.321 7.76 4.57 11.95
4/1/2021 10:00:00 AM 6.62 43.916 0.321 7.77 4.2 11.98
4/1/2021 10:15:00 AM 6.52 43.736 0.32 7.77 4.45 11.97
4/1/2021 10:30:00 AM 6.41 43.538 0.32 7.77 4.35 11.99
4/1/2021 10:45:00 AM 6.43 43.574 0.32 7.78 4.23 12.06
4/1/2021 11:00:00 AM 6.41 43.538 0.32 7.79 4.38 12.1
4/1/2021 11:15:00 AM 6.36 43.448 0.32 7.79 4.47 12.13
4/1/2021 11:30:00 AM 6.37 43.466 0.319 7.8 4.31 12.18
4/1/2021 11:45:00 AM 6.39 43.502 0.319 7.81 4.3 12.23
4/1/2021 12:00:00 PM 6.43 43.574 0.319 7.82 4.14 12.29
4/1/2021 12:15:00 PM 6.46 43.628 0.319 7.83 4.19 12.33
4/1/2021 12:30:00 PM 6.44 43.592 0.319 7.84 4.09 12.35
4/1/2021 12:45:00 PM 6.45 43.61 0.319 7.84 4.23 12.37
4/1/2021 1:00:00 PM 6.44 43.592 0.318 7.85 4.26 12.38
4/1/2021 1:15:00 PM 6.42 43.556 0.318 7.86 4.09 12.4
4/1/2021 1:30:00 PM 6.42 43.556 0.318 7.86 4.21 12.43
4/1/2021 1:45:00 PM 6.42 43.556 0.317 7.86 4.08 12.44
4/1/2021 2:00:00 PM 6.41 43.538 0.317 7.87 4.14 12.46
4/1/2021 2:15:00 PM 6.39 43.502 0.317 7.87 4.12 12.46
4/1/2021 2:30:00 PM 6.37 43.466 0.317 7.87 4.32 12.46
4/1/2021 2:45:00 PM 6.38 43.484 0.316 7.88 4.4 12.47
4/1/2021 3:00:00 PM 6.33 43.394 0.316 7.88 4.24 12.48
4/1/2021 3:15:00 PM 6.31 43.358 0.315 7.88 4.11 12.49
4/1/2021 3:30:00 PM 6.29 43.322 0.315 7.88 4.21 12.5
4/1/2021 3:45:00 PM 6.27 43.286 0.315 7.88 4.43 12.51
4/1/2021 4:00:00 PM 6.23 43.214 0.315 7.89 4.1 12.51
4/1/2021 4:15:00 PM 6.18 43.124 0.314 7.88 4.05 12.51
4/1/2021 4:30:00 PM 6.16 43.088 0.314 7.88 4.1 12.51
4/1/2021 4:45:00 PM 6.18 43.124 0.314 7.88 4.16 12.52
4/1/2021 5:00:00 PM 6.09 42.962 0.314 7.87 4.18 12.54
4/1/2021 5:15:00 PM 6.08 42.944 0.313 7.88 4.28 12.56
4/1/2021 5:30:00 PM 6.04 42.872 0.313 7.88 4.31 12.54
4/1/2021 5:45:00 PM 5.98 42.764 0.313 7.88 4.27 12.53
4/1/2021 6:00:00 PM 5.93 42.674 0.313 7.87 4.32 12.53
4/1/2021 6:15:00 PM 5.86 42.548 0.313 7.87 4.25 12.51
4/1/2021 6:30:00 PM 5.83 42.494 0.313 7.86 4.14 12.51
4/1/2021 6:45:00 PM 5.79 42.422 0.313 7.86 4.46 12.53
4/1/2021 7:00:00 PM 5.75 42.35 0.313 7.85 4.37 12.5
4/1/2021 7:15:00 PM 5.7 42.26 0.313 7.84 4.39 12.45
4/1/2021 7:30:00 PM 5.65 42.17 0.313 7.83 4.35 12.41
4/1/2021 7:45:00 PM 5.58 42.044 0.313 7.82 4.26 12.38
4/1/2021 8:00:00 PM 5.52 41.936 0.314 7.8 4.23 12.35
4/1/2021 8:15:00 PM 5.47 41.846 0.314 7.79 4.29 12.32
4/1/2021 8:30:00 PM 5.41 41.738 0.314 7.79 4.48 12.32
4/1/2021 8:45:00 PM 5.35 41.63 0.314 7.78 4.19 12.31
4/1/2021 9:00:00 PM 5.31 41.558 0.314 7.77 4.9 12.31
4/1/2021 9:15:00 PM 5.25 41.45 0.314 7.76 4.45 12.31
4/1/2021 9:30:00 PM 5.19 41.342 0.314 7.76 4.37 12.31
4/1/2021 9:45:00 PM 5.13 41.234 0.314 7.75 4.14 12.32
4/1/2021 10:00:00 PM 5.08 41.144 0.314 7.74 4.37 12.32
4/1/2021 10:15:00 PM 5.02 41.036 0.314 7.74 4.24 12.32
4/1/2021 10:30:00 PM 4.97 40.946 0.314 7.74 4.37 12.32
4/1/2021 10:45:00 PM 4.9 40.82 0.314 7.73 3.92 12.32
4/1/2021 11:00:00 PM 4.83 40.694 0.314 7.72 3.97 12.33
4/1/2021 11:15:00 PM 4.74 40.532 0.314 7.72 3.98 12.34
4/1/2021 11:30:00 PM 4.72 40.496 0.314 7.72 4.1 12.35
4/1/2021 11:45:00 PM 4.69 40.442 0.314 7.72 4.06 12.36
4/2/2021 12:00:00 AM 4.65 40.37 0.315 7.72 4.05 12.38
4/2/2021 12:15:00 AM 4.59 40.262 0.315 7.71 4.1 12.4
4/2/2021 12:30:00 AM 4.5 40.1 0.315 7.71 3.97 12.41
4/2/2021 12:45:00 AM 4.43 39.974 0.315 7.71 4.16 12.43
4/2/2021 1:00:00 AM 4.37 39.866 0.315 7.71 4.07 12.45
4/2/2021 1:15:00 AM 4.31 39.758 0.315 7.71 4.15 12.47
4/2/2021 1:30:00 AM 4.23 39.614 0.315 7.7 4.08 12.5
4/2/2021 1:45:00 AM 4.17 39.506 0.316 7.7 4 12.52
4/2/2021 2:00:00 AM 4.12 39.416 0.316 7.7 4.05 12.55
4/2/2021 2:15:00 AM 4.06 39.308 0.316 7.7 4.08 12.56
4/2/2021 2:30:00 AM 4 39.2 0.316 7.7 4.12 12.58
4/2/2021 2:45:00 AM 3.94 39.092 0.316 7.7 4.19 12.6
4/2/2021 3:00:00 AM 3.88 38.984 0.316 7.7 4.01 12.62
4/2/2021 3:15:00 AM 3.82 38.876 0.316 7.69 4.06 12.63
4/2/2021 3:30:00 AM 3.76 38.768 0.316 7.7 4.14 12.66
4/2/2021 3:45:00 AM 3.7 38.66 0.316 7.7 3.9 12.68
4/2/2021 4:00:00 AM 3.64 38.552 0.316 7.69 3.9 12.69
4/2/2021 4:15:00 AM 3.59 38.462 0.316 7.69 3.72 12.7
4/2/2021 4:30:00 AM 3.54 38.372 0.316 7.69 3.88 12.73
4/2/2021 4:45:00 AM 3.48 38.264 0.316 7.69 3.94 12.74
4/2/2021 5:00:00 AM 3.43 38.174 0.316 7.69 4.06 12.78
4/2/2021 5:15:00 AM 3.37 38.066 0.315 7.69 3.98 12.79
4/2/2021 5:30:00 AM 3.3 37.94 0.315 7.69 4.13 12.81
4/2/2021 5:45:00 AM 3.24 37.832 0.315 7.69 4.78 12.84
4/2/2021 6:00:00 AM 3.17 37.706 0.315 7.69 4.2 12.87
4/2/2021 6:15:00 AM 3.11 37.598 0.315 7.69 3.76 12.89
4/2/2021 6:30:00 AM 3.04 37.472 0.315 7.68 3.7 12.91
4/2/2021 6:45:00 AM 2.98 37.364 0.316 7.68 3.82 12.93
4/2/2021 7:00:00 AM 2.92 37.256 0.315 7.68 3.79 12.97
4/2/2021 7:15:00 AM 2.86 37.148 0.315 7.68 3.72 13
4/2/2021 7:30:00 AM 2.81 37.058 0.315 7.68 3.83 13.04
4/2/2021 7:45:00 AM 2.76 36.968 0.315 7.69 3.74 13.09
4/2/2021 8:00:00 AM 2.71 36.878 0.315 7.7 3.84 13.14
4/2/2021 8:15:00 AM 2.68 36.824 0.315 7.7 3.62 13.19
4/2/2021 8:30:00 AM 2.65 36.77 0.315 7.7 4.03 13.23
4/2/2021 8:45:00 AM 2.66 36.788 0.315 7.71 3.69 13.27
4/2/2021 9:00:00 AM 2.65 36.77 0.315 7.72 3.64 13.32
4/2/2021 9:15:00 AM 2.65 36.77 0.315 7.72 3.71 13.35
4/2/2021 9:30:00 AM 2.66 36.788 0.315 7.73 3.72 13.39
4/2/2021 9:45:00 AM 2.69 36.842 0.315 7.73 3.72 13.42
4/2/2021 10:00:00 AM 2.71 36.878 0.315 7.74 3.81 13.44
4/2/2021 10:15:00 AM 2.77 36.986 0.315 7.74 3.74 13.46
4/2/2021 10:30:00 AM 2.81 37.058 0.315 7.74 3.65 13.48
4/2/2021 10:45:00 AM 2.81 37.058 0.315 7.75 3.75 13.5
4/2/2021 11:00:00 AM 2.89 37.202 0.315 7.75 3.71 13.51
4/2/2021 11:15:00 AM 2.99 37.382 0.316 7.76 3.64 13.51
4/2/2021 11:30:00 AM 3.09 37.562 0.315 7.76 3.71 13.51
4/2/2021 11:45:00 AM 3.21 37.778 0.315 7.77 3.75 13.51
4/2/2021 12:00:00 PM 3.33 37.994 0.315 7.77 3.56 13.49
4/2/2021 12:15:00 PM 3.46 38.228 0.315 7.78 3.78 13.49
4/2/2021 12:30:00 PM 3.6 38.48 0.316 7.78 3.77 13.48
4/2/2021 12:45:00 PM 3.78 38.804 0.315 7.79 3.63 13.46
4/2/2021 1:00:00 PM 3.94 39.092 0.315 7.79 3.66 13.43
4/2/2021 1:15:00 PM 4.13 39.434 0.315 7.8 3.55 13.4
4/2/2021 1:30:00 PM 4.33 39.794 0.315 7.8 3.62 13.37
4/2/2021 1:45:00 PM 4.56 40.208 0.315 7.81 3.6 13.34
4/2/2021 2:00:00 PM 4.76 40.568 0.315 7.81 3.59 13.3
4/2/2021 2:15:00 PM 5 41 0.314 7.81 3.54 13.24
4/2/2021 2:30:00 PM 5.16 41.288 0.314 7.82 3.56 13.21
4/2/2021 2:45:00 PM 5.37 41.666 0.315 7.82 3.53 13.16
4/2/2021 3:00:00 PM 5.53 41.954 0.314 7.82 3.67 13.11
4/2/2021 3:15:00 PM 5.64 42.152 0.314 7.83 3.52 13.08
4/2/2021 3:30:00 PM 5.8 42.44 0.314 7.83 3.68 13.02
4/2/2021 3:45:00 PM 5.92 42.656 0.314 7.84 3.56 12.99
4/2/2021 4:00:00 PM 6 42.8 0.314 7.84 3.61 12.95
4/2/2021 4:15:00 PM 6.05 42.89 0.314 7.85 3.62 12.92
4/2/2021 4:30:00 PM 6.07 42.926 0.314 7.85 3.73 12.89
4/2/2021 4:45:00 PM 6.07 42.926 0.314 7.85 3.58 12.86
4/2/2021 5:00:00 PM 6.03 42.854 0.314 7.85 3.71 12.84
4/2/2021 5:15:00 PM 5.97 42.746 0.314 7.85 3.61 12.81
4/2/2021 5:30:00 PM 5.91 42.638 0.314 7.85 3.64 12.79
4/2/2021 5:45:00 PM 5.82 42.476 0.314 7.85 3.63 12.76
4/2/2021 6:00:00 PM 5.73 42.314 0.314 7.85 3.8 12.74
4/2/2021 6:15:00 PM 5.64 42.152 0.314 7.84 3.81 12.72
4/2/2021 6:30:00 PM 5.57 42.026 0.314 7.84 4.03 12.7
4/2/2021 6:45:00 PM 5.5 41.9 0.315 7.83 4.02 12.67
4/2/2021 7:00:00 PM 5.43 41.774 0.315 7.82 4.17 12.65
4/2/2021 7:15:00 PM 5.35 41.63 0.315 7.82 4.03 12.61
4/2/2021 7:30:00 PM 5.26 41.468 0.315 7.81 3.98 12.59
4/2/2021 7:45:00 PM 5.19 41.342 0.315 7.8 4.03 12.55
4/2/2021 8:00:00 PM 5.11 41.198 0.315 7.79 3.83 12.53
4/2/2021 8:15:00 PM 5.05 41.09 0.315 7.78 3.94 12.52
4/2/2021 8:30:00 PM 4.98 40.964 0.315 7.77 4.02 12.5
4/2/2021 8:45:00 PM 4.92 40.856 0.315 7.77 3.81 12.5
4/2/2021 9:00:00 PM 4.85 40.73 0.315 7.76 3.74 12.49
4/2/2021 9:15:00 PM 4.8 40.64 0.315 7.76 3.79 12.49
4/2/2021 9:30:00 PM 4.74 40.532 0.315 7.75 3.76 12.49
4/2/2021 9:45:00 PM 4.69 40.442 0.315 7.75 3.8 12.49
4/2/2021 10:00:00 PM 4.63 40.334 0.315 7.74 3.75 12.5
4/2/2021 10:15:00 PM 4.57 40.226 0.315 7.73 3.7 12.5
4/2/2021 10:30:00 PM 4.51 40.118 0.315 7.73 3.64 12.51
4/2/2021 10:45:00 PM 4.45 40.01 0.315 7.73 3.74 12.52
4/2/2021 11:00:00 PM 4.4 39.92 0.315 7.73 3.73 12.54
4/2/2021 11:15:00 PM 4.33 39.794 0.315 7.72 3.68 12.55
4/2/2021 11:30:00 PM 4.26 39.668 0.315 7.72 3.63 12.56
4/2/2021 11:45:00 PM 4.19 39.542 0.316 7.72 3.73 12.59
4/3/2021 12:00:00 AM 4.12 39.416 0.316 7.71 3.85 12.61
4/3/2021 12:15:00 AM 4.04 39.272 0.316 7.71 3.68 12.63
4/3/2021 12:30:00 AM 3.97 39.146 0.316 7.71 3.55 12.65
4/3/2021 12:45:00 AM 3.88 38.984 0.316 7.71 3.72 12.67
4/3/2021 1:00:00 AM 3.81 38.858 0.316 7.7 3.81 12.7
4/3/2021 1:15:00 AM 3.73 38.714 0.316 7.7 3.75 12.74
4/3/2021 1:30:00 AM 3.66 38.588 0.316 7.7 3.55 12.75
4/3/2021 1:45:00 AM 3.59 38.462 0.317 7.7 3.78 12.77
4/3/2021 2:00:00 AM 3.53 38.354 0.317 7.7 3.62 12.79
4/3/2021 2:15:00 AM 3.46 38.228 0.317 7.7 3.71 12.81
4/3/2021 2:30:00 AM 3.41 38.138 0.317 7.7 3.58 12.82
4/3/2021 2:45:00 AM 3.35 38.03 0.317 7.69 3.67 12.84
4/3/2021 3:00:00 AM 3.3 37.94 0.317 7.69 3.66 12.86
4/3/2021 3:15:00 AM 3.26 37.868 0.317 7.69 3.67 12.87
4/3/2021 3:30:00 AM 3.2 37.76 0.317 7.69 3.91 12.89
4/3/2021 3:45:00 AM 3.16 37.688 0.317 7.69 3.67 12.91
4/3/2021 4:00:00 AM 3.11 37.598 0.318 7.69 3.7 12.94
4/3/2021 4:15:00 AM 3.06 37.508 0.318 7.69 3.5 12.96
4/3/2021 4:30:00 AM 3 37.4 0.318 7.69 3.68 12.98
4/3/2021 4:45:00 AM 2.94 37.292 0.318 7.69 3.61 13
4/3/2021 5:00:00 AM 2.87 37.166 0.318 7.69 3.55 13.02
4/3/2021 5:15:00 AM 2.81 37.058 0.318 7.69 3.56 13.05
4/3/2021 5:30:00 AM 2.75 36.95 0.318 7.69 3.6 13.07
4/3/2021 5:45:00 AM 2.68 36.824 0.318 7.69 3.57 13.1
4/3/2021 6:00:00 AM 2.61 36.698 0.318 7.69 3.58 13.13
4/3/2021 6:15:00 AM 2.54 36.572 0.318 7.69 3.68 13.16
4/3/2021 6:30:00 AM 2.47 36.446 0.319 7.69 3.69 13.19
4/3/2021 6:45:00 AM 2.41 36.338 0.319 7.69 3.82 13.22
4/3/2021 7:00:00 AM 2.35 36.23 0.319 7.68 3.7 13.25
4/3/2021 7:15:00 AM 2.29 36.122 0.319 7.69 3.64 13.29
4/3/2021 7:30:00 AM 2.24 36.032 0.319 7.69 3.69 13.33
4/3/2021 7:45:00 AM 2.2 35.96 0.319 7.69 3.59 13.37
4/3/2021 8:00:00 AM 2.16 35.888 0.319 7.7 3.54 13.41
4/3/2021 8:15:00 AM 2.14 35.852 0.319 7.71 3.66 13.46
4/3/2021 8:30:00 AM 2.15 35.87 0.319 7.71 3.6 13.5
4/3/2021 8:45:00 AM 2.18 35.924 0.319 7.72 3.59 13.54
4/3/2021 9:00:00 AM 2.2 35.96 0.319 7.72 3.59 13.57
4/3/2021 9:15:00 AM 2.23 36.014 0.319 7.72 3.65 13.6
4/3/2021 9:30:00 AM 2.29 36.122 0.32 7.73 3.49 13.63
4/3/2021 9:45:00 AM 2.35 36.23 0.32 7.74 3.6 13.66
4/3/2021 10:00:00 AM 2.4 36.32 0.32 7.74 3.59 13.68
4/3/2021 10:15:00 AM 2.47 36.446 0.32 7.75 3.7 13.69
4/3/2021 10:30:00 AM 2.54 36.572 0.32 7.75 3.53 13.69
4/3/2021 10:45:00 AM 2.66 36.788 0.319 7.76 3.57 13.71
4/3/2021 11:00:00 AM 2.75 36.95 0.32 7.77 3.54 13.71
4/3/2021 11:15:00 AM 2.83 37.094 0.32 7.77 3.59 13.7
4/3/2021 11:30:00 AM 2.99 37.382 0.32 7.77 3.61 13.69
4/3/2021 11:45:00 AM 3.16 37.688 0.319 7.78 3.51 13.68
4/3/2021 12:00:00 PM 3.32 37.976 0.32 7.79 3.54 13.66
4/3/2021 12:15:00 PM 3.46 38.228 0.319 7.79 3.58 13.65
4/3/2021 12:30:00 PM 3.59 38.462 0.32 7.8 3.85 13.62
4/3/2021 12:45:00 PM 3.78 38.804 0.32 7.81 3.62 13.59
4/3/2021 1:00:00 PM 3.98 39.164 0.32 7.81 3.55 13.54
4/3/2021 1:15:00 PM 4.18 39.524 0.321 7.81 3.5 13.5
4/3/2021 1:30:00 PM 4.41 39.938 0.32 7.82 3.45 13.44
4/3/2021 1:45:00 PM 4.69 40.442 0.32 7.82 3.41 13.4
4/3/2021 2:00:00 PM 4.9 40.82 0.319 7.82 3.5 13.35
4/3/2021 2:15:00 PM 5.1 41.18 0.319 7.83 3.48 13.3
4/3/2021 2:30:00 PM 5.16 41.288 0.319 7.84 3.48 13.25
4/3/2021 2:45:00 PM 5.36 41.648 0.319 7.84 3.44 13.2
4/3/2021 3:00:00 PM 5.63 42.134 0.318 7.85 3.51 13.14
4/3/2021 3:15:00 PM 5.79 42.422 0.318 7.85 3.39 13.1
4/3/2021 3:30:00 PM 5.84 42.512 0.318 7.86 4.49 13.06
4/3/2021 3:45:00 PM 5.99 42.782 0.318 7.87 3.42 13.01
4/3/2021 4:00:00 PM 6.03 42.854 0.318 7.87 3.69 12.96
4/3/2021 4:15:00 PM 6.15 43.07 0.318 7.87 3.55 12.94
4/3/2021 4:30:00 PM 6.14 43.052 0.318 7.88 3.87 12.9
4/3/2021 4:45:00 PM 6.19 43.142 0.318 7.88 3.56 12.88
4/3/2021 5:00:00 PM 6.17 43.106 0.318 7.88 3.58 12.84
4/3/2021 5:15:00 PM 6.2 43.16 0.318 7.88 3.49 12.81
4/3/2021 5:30:00 PM 6.22 43.196 0.318 7.89 3.46 12.77
4/3/2021 5:45:00 PM 6.18 43.124 0.318 7.88 3.52 12.72
4/3/2021 6:00:00 PM 6.15 43.07 0.318 7.88 4.01 12.69
4/3/2021 6:15:00 PM 6.11 42.998 0.318 7.88 4.13 12.65
4/3/2021 6:30:00 PM 6.08 42.944 0.318 7.87 3.45 12.64
4/3/2021 6:45:00 PM 6.03 42.854 0.319 7.87 3.55 12.61
4/3/2021 7:00:00 PM 6 42.8 0.319 7.86 3.46 12.58
4/3/2021 7:15:00 PM 5.97 42.746 0.319 7.85 3.78 12.52
4/3/2021 7:30:00 PM 5.94 42.692 0.318 7.84 3.56 12.47
4/3/2021 7:45:00 PM 5.9 42.62 0.319 7.82 3.58 12.41
4/3/2021 8:00:00 PM 5.86 42.548 0.319 7.81 3.57 12.37
4/3/2021 8:15:00 PM 5.83 42.494 0.319 7.8 3.58 12.34
4/3/2021 8:30:00 PM 5.8 42.44 0.319 7.79 3.51 12.3
4/3/2021 8:45:00 PM 5.78 42.404 0.319 7.78 3.57 12.28
4/3/2021 9:00:00 PM 5.76 42.368 0.319 7.78 3.59 12.26
4/3/2021 9:15:00 PM 5.75 42.35 0.319 7.77 3.53 12.22
4/3/2021 9:30:00 PM 5.73 42.314 0.319 7.77 3.65 12.23
4/3/2021 9:45:00 PM 5.71 42.278 0.32 7.77 3.6 12.21
4/3/2021 10:00:00 PM 5.69 42.242 0.319 7.76 3.79 12.2
4/3/2021 10:15:00 PM 5.66 42.188 0.319 7.75 3.6 12.19
4/3/2021 10:30:00 PM 5.64 42.152 0.32 7.75 3.75 12.18
4/3/2021 10:45:00 PM 5.62 42.116 0.32 7.75 3.56 12.18
4/3/2021 11:00:00 PM 5.59 42.062 0.32 7.74 3.67 12.17
4/3/2021 11:15:00 PM 5.56 42.008 0.319 7.74 3.66 12.17
4/3/2021 11:30:00 PM 5.53 41.954 0.32 7.73 3.6 12.17
4/3/2021 11:45:00 PM 5.5 41.9 0.319 7.73 3.69 12.17
4/4/2021 12:00:00 AM 5.48 41.864 0.319 7.73 3.7 12.18
4/4/2021 12:15:00 AM 5.46 41.828 0.319 7.72 3.73 12.17
4/4/2021 12:30:00 AM 5.43 41.774 0.32 7.72 3.8 12.17
4/4/2021 12:45:00 AM 5.41 41.738 0.32 7.72 3.84 12.17
4/4/2021 1:00:00 AM 5.39 41.702 0.32 7.72 3.81 12.17
4/4/2021 1:15:00 AM 5.37 41.666 0.32 7.72 3.98 12.17
4/4/2021 1:30:00 AM 5.35 41.63 0.32 7.72 4.07 12.18
4/4/2021 1:45:00 AM 5.33 41.594 0.319 7.71 3.98 12.17
4/4/2021 2:00:00 AM 5.31 41.558 0.319 7.71 4.07 12.18
4/4/2021 2:15:00 AM 5.29 41.522 0.319 7.71 4.06 12.18
4/4/2021 2:30:00 AM 5.27 41.486 0.319 7.71 3.94 12.18
4/4/2021 2:45:00 AM 5.24 41.432 0.319 7.71 4.01 12.18
4/4/2021 3:00:00 AM 5.22 41.396 0.32 7.7 3.84 12.19
4/4/2021 3:15:00 AM 5.17 41.306 0.319 7.7 4.1 12.2
4/4/2021 3:30:00 AM 5.12 41.216 0.319 7.7 3.96 12.21
4/4/2021 3:45:00 AM 5.08 41.144 0.319 7.7 3.87 12.22
4/4/2021 4:00:00 AM 5.03 41.054 0.319 7.7 3.9 12.22
4/4/2021 4:15:00 AM 4.98 40.964 0.32 7.7 3.81 12.24
4/4/2021 4:30:00 AM 4.92 40.856 0.319 7.7 3.75 12.25
4/4/2021 4:45:00 AM 4.88 40.784 0.32 7.7 3.82 12.26
4/4/2021 5:00:00 AM 4.85 40.73 0.319 7.7 3.74 12.28
4/4/2021 5:15:00 AM 4.82 40.676 0.32 7.7 3.83 12.28
4/4/2021 5:30:00 AM 4.79 40.622 0.32 7.7 3.77 12.3
4/4/2021 5:45:00 AM 4.75 40.55 0.32 7.69 3.67 12.31
4/4/2021 6:00:00 AM 4.7 40.46 0.32 7.69 3.72 12.32
4/4/2021 6:15:00 AM 4.64 40.352 0.32 7.69 3.62 12.34
4/4/2021 6:30:00 AM 4.58 40.244 0.32 7.69 3.71 12.36
4/4/2021 6:45:00 AM 4.53 40.154 0.32 7.69 3.68 12.38
4/4/2021 7:00:00 AM 4.47 40.046 0.32 7.69 3.68 12.4
4/4/2021 7:15:00 AM 4.43 39.974 0.32 7.69 3.62 12.43
4/4/2021 7:30:00 AM 4.39 39.902 0.32 7.69 3.69 12.47
4/4/2021 7:45:00 AM 4.36 39.848 0.32 7.7 3.81 12.51
4/4/2021 8:00:00 AM 4.33 39.794 0.32 7.7 3.72 12.56
4/4/2021 8:15:00 AM 4.32 39.776 0.32 7.71 3.66 12.6
4/4/2021 8:30:00 AM 4.33 39.794 0.32 7.72 3.66 12.65
4/4/2021 8:45:00 AM 4.36 39.848 0.321 7.72 3.67 12.69
4/4/2021 9:00:00 AM 4.39 39.902 0.32 7.73 3.67 12.72
4/4/2021 9:15:00 AM 4.42 39.956 0.321 7.74 3.63 12.75
4/4/2021 9:30:00 AM 4.48 40.064 0.321 7.74 3.58 12.77
4/4/2021 9:45:00 AM 4.55 40.19 0.32 7.75 3.65 12.79
4/4/2021 10:00:00 AM 4.66 40.388 0.32 7.76 3.56 12.8
4/4/2021 10:15:00 AM 4.75 40.55 0.32 7.76 3.65 12.82
4/4/2021 10:30:00 AM 4.86 40.748 0.32 7.77 3.71 12.81
4/4/2021 10:45:00 AM 4.94 40.892 0.32 7.78 3.54 12.83
4/4/2021 11:00:00 AM 5.08 41.144 0.32 7.78 3.52 12.82
4/4/2021 11:15:00 AM 5.23 41.414 0.32 7.79 3.61 12.81
4/4/2021 11:30:00 AM 5.4 41.72 0.32 7.8 3.55 12.79
4/4/2021 11:45:00 AM 5.58 42.044 0.32 7.8 3.51 12.78
4/4/2021 12:00:00 PM 5.77 42.386 0.32 7.81 3.54 12.76
4/4/2021 12:15:00 PM 5.98 42.764 0.32 7.82 3.75 12.73
4/4/2021 12:30:00 PM 6.18 43.124 0.32 7.82 3.74 12.69
4/4/2021 12:45:00 PM 6.41 43.538 0.319 7.83 3.52 12.65
4/4/2021 1:00:00 PM 6.63 43.934 0.32 7.83 3.53 12.62
4/4/2021 1:15:00 PM 6.87 44.366 0.32 7.84 3.51 12.58
4/4/2021 1:30:00 PM 7.16 44.888 0.32 7.85 3.5 12.53
4/4/2021 1:45:00 PM 7.45 45.41 0.32 7.86 3.57 12.48
4/4/2021 2:00:00 PM 7.7 45.86 0.32 7.86 3.5 12.43
4/4/2021 2:15:00 PM 7.96 46.328 0.32 7.87 3.58 12.37
4/4/2021 2:30:00 PM 8.22 46.796 0.32 7.88 3.47 12.32
4/4/2021 2:45:00 PM 8.46 47.228 0.32 7.88 3.58 12.27
4/4/2021 3:00:00 PM 8.68 47.624 0.32 7.89 3.45 12.21
4/4/2021 3:15:00 PM 8.88 47.984 0.32 7.89 3.59 12.15
4/4/2021 3:30:00 PM 9.04 48.272 0.32 7.9 3.55 12.09
4/4/2021 3:45:00 PM 9.2 48.56 0.32 7.9 3.65 12.05
4/4/2021 4:00:00 PM 9.32 48.776 0.32 7.91 3.84 12
4/4/2021 4:15:00 PM 9.43 48.974 0.32 7.91 3.55 11.95
4/4/2021 4:30:00 PM 9.49 49.082 0.321 7.92 3.71 11.9
4/4/2021 4:45:00 PM 9.52 49.136 0.32 7.92 3.68 11.86
4/4/2021 5:00:00 PM 9.55 49.19 0.32 7.93 3.66 11.82
4/4/2021 5:15:00 PM 9.55 49.19 0.321 7.92 3.68 11.79
4/4/2021 5:30:00 PM 9.51 49.118 0.321 7.93 3.7 11.75
4/4/2021 5:45:00 PM 9.45 49.01 0.321 7.92 3.67 11.71
4/4/2021 6:00:00 PM 9.4 48.92 0.321 7.92 3.66 11.67
4/4/2021 6:15:00 PM 9.35 48.83 0.321 7.91 3.68 11.62
4/4/2021 6:30:00 PM 9.29 48.722 0.321 7.9 3.87 11.58
4/4/2021 6:45:00 PM 9.24 48.632 0.321 7.9 4.06 11.54
4/4/2021 7:00:00 PM 9.19 48.542 0.321 7.89 3.73 11.5
4/4/2021 7:15:00 PM 9.13 48.434 0.322 7.88 3.86 11.44
4/4/2021 7:30:00 PM 9.08 48.344 0.322 7.87 3.73 11.39
4/4/2021 7:45:00 PM 9.01 48.218 0.322 7.85 3.73 11.35
4/4/2021 8:00:00 PM 8.94 48.092 0.323 7.84 3.75 11.31
4/4/2021 8:15:00 PM 8.88 47.984 0.322 7.83 3.63 11.28
4/4/2021 8:30:00 PM 8.81 47.858 0.323 7.81 3.78 11.26
4/4/2021 8:45:00 PM 8.75 47.75 0.323 7.81 3.84 11.24
4/4/2021 9:00:00 PM 8.7 47.66 0.322 7.8 3.73 11.23
4/4/2021 9:15:00 PM 8.63 47.534 0.323 7.79 3.81 11.23
4/4/2021 9:30:00 PM 8.57 47.426 0.322 7.78 3.75 11.21
4/4/2021 9:45:00 PM 8.52 47.336 0.323 7.78 3.75 11.22
4/4/2021 10:00:00 PM 8.47 47.246 0.323 7.78 3.78 11.21
4/4/2021 10:15:00 PM 8.41 47.138 0.323 7.77 3.86 11.21
4/4/2021 10:30:00 PM 8.35 47.03 0.323 7.76 3.79 11.21
4/4/2021 10:45:00 PM 8.29 46.922 0.323 7.76 3.81 11.21
4/4/2021 11:00:00 PM 8.23 46.814 0.324 7.75 3.68 11.22
4/4/2021 11:15:00 PM 8.16 46.688 0.324 7.75 3.73 11.23
4/4/2021 11:30:00 PM 8.1 46.58 0.324 7.75 3.74 11.24
4/4/2021 11:45:00 PM 8.02 46.436 0.324 7.74 3.83 11.25
4/5/2021 12:00:00 AM 7.94 46.292 0.324 7.74 3.73 11.27
4/5/2021 12:15:00 AM 7.87 46.166 0.324 7.74 3.73 11.28
4/5/2021 12:30:00 AM 7.78 46.004 0.324 7.73 4.05 11.3
4/5/2021 12:45:00 AM 7.7 45.86 0.324 7.73 3.83 11.33
4/5/2021 1:00:00 AM 7.61 45.698 0.324 7.73 4.03 11.35
4/5/2021 1:15:00 AM 7.52 45.536 0.324 7.73 3.81 11.37
4/5/2021 1:30:00 AM 7.43 45.374 0.324 7.72 3.84 11.4
4/5/2021 1:45:00 AM 7.34 45.212 0.324 7.72 3.84 11.43
4/5/2021 2:00:00 AM 7.25 45.05 0.324 7.72 3.7 11.46
4/5/2021 2:15:00 AM 7.17 44.906 0.324 7.72 3.96 11.47
4/5/2021 2:30:00 AM 7.09 44.762 0.324 7.72 3.98 11.49
4/5/2021 2:45:00 AM 7.02 44.636 0.324 7.72 3.96 11.51
4/5/2021 3:00:00 AM 6.94 44.492 0.324 7.72 3.87 11.53
4/5/2021 3:15:00 AM 6.88 44.384 0.324 7.71 3.83 11.56
4/5/2021 3:30:00 AM 6.81 44.258 0.325 7.71 3.87 11.57
4/5/2021 3:45:00 AM 6.75 44.15 0.325 7.71 3.91 11.59
4/5/2021 4:00:00 AM 6.68 44.024 0.325 7.71 3.9 11.61
4/5/2021 4:15:00 AM 6.61 43.898 0.324 7.71 3.87 11.63
4/5/2021 4:30:00 AM 6.56 43.808 0.325 7.71 3.84 11.65
4/5/2021 4:45:00 AM 6.49 43.682 0.325 7.71 4.01 11.67
4/5/2021 5:00:00 AM 6.43 43.574 0.325 7.71 3.89 11.69
4/5/2021 5:15:00 AM 6.36 43.448 0.325 7.71 3.98 11.71
4/5/2021 5:30:00 AM 6.29 43.322 0.325 7.71 3.86 11.74
4/5/2021 5:45:00 AM 6.22 43.196 0.326 7.71 3.79 11.77
4/5/2021 6:00:00 AM 6.15 43.07 0.326 7.7 3.89 11.78
4/5/2021 6:15:00 AM 6.07 42.926 0.326 7.7 3.91 11.82
4/5/2021 6:30:00 AM 5.99 42.782 0.326 7.7 4.05 11.85
4/5/2021 6:45:00 AM 5.92 42.656 0.326 7.7 3.8 11.87
4/5/2021 7:00:00 AM 5.84 42.512 0.326 7.7 4.06 11.9
4/5/2021 7:15:00 AM 5.78 42.404 0.326 7.7 3.82 11.93
4/5/2021 7:30:00 AM 5.72 42.296 0.326 7.7 3.84 11.99
4/5/2021 7:45:00 AM 5.66 42.188 0.326 7.71 3.82 12.04
4/5/2021 8:00:00 AM 5.61 42.098 0.326 7.71 3.9 12.09
4/5/2021 8:15:00 AM 5.57 42.026 0.326 7.72 3.9 12.15
4/5/2021 8:30:00 AM 5.57 42.026 0.326 7.73 3.9 12.21
4/5/2021 8:45:00 AM 5.59 42.062 0.326 7.73 3.8 12.25
4/5/2021 9:00:00 AM 5.59 42.062 0.326 7.74 3.73 12.31
4/5/2021 9:15:00 AM 5.61 42.098 0.326 7.75 3.83 12.33
4/5/2021 9:30:00 AM 5.64 42.152 0.326 7.76 3.73 12.37
4/5/2021 9:45:00 AM 5.71 42.278 0.326 7.76 3.83 12.39
4/5/2021 10:00:00 AM 5.78 42.404 0.325 7.77 3.79 12.42
4/5/2021 10:15:00 AM 5.88 42.584 0.325 7.77 3.77 12.43
4/5/2021 10:30:00 AM 5.95 42.71 0.325 7.78 4.28 12.45
4/5/2021 10:45:00 AM 6.02 42.836 0.326 7.79 3.79 12.46
4/5/2021 11:00:00 AM 6.15 43.07 0.325 7.8 3.76 12.47
4/5/2021 11:15:00 AM 6.27 43.286 0.325 7.8 4.11 12.46
4/5/2021 11:30:00 AM 6.43 43.574 0.325 7.81 3.7 12.45
4/5/2021 11:45:00 AM 6.59 43.862 0.325 7.82 3.73 12.44
4/5/2021 12:00:00 PM 6.79 44.222 0.325 7.82 3.71 12.43
4/5/2021 12:15:00 PM 6.97 44.546 0.325 7.83 3.79 12.41
4/5/2021 12:30:00 PM 7.17 44.906 0.325 7.84 3.72 12.39
4/5/2021 12:45:00 PM 7.35 45.23 0.325 7.85 3.71 12.37
4/5/2021 1:00:00 PM 7.58 45.644 0.325 7.86 3.67 12.35
4/5/2021 1:15:00 PM 7.76 45.968 0.325 7.87 3.72 12.33
4/5/2021 1:30:00 PM 7.93 46.274 0.325 7.88 3.71 12.31
4/5/2021 1:45:00 PM 8.13 46.634 0.325 7.89 3.68 12.28
4/5/2021 2:00:00 PM 8.33 46.994 0.324 7.9 3.7 12.24
4/5/2021 2:15:00 PM 8.51 47.318 0.325 7.9 3.72 12.21
4/5/2021 2:30:00 PM 8.69 47.642 0.325 7.91 4.62 12.17
4/5/2021 2:45:00 PM 8.84 47.912 0.325 7.92 3.77 12.13
4/5/2021 3:00:00 PM 9.01 48.218 0.325 7.93 3.8 12.09
4/5/2021 3:15:00 PM 9.12 48.416 0.324 7.93 3.66 12.04
4/5/2021 3:30:00 PM 9.25 48.65 0.324 7.94 3.74 12.02
4/5/2021 3:45:00 PM 9.35 48.83 0.324 7.95 3.66 11.99
4/5/2021 4:00:00 PM 9.4 48.92 0.325 7.96 3.78 11.93
4/5/2021 4:15:00 PM 9.44 48.992 0.325 7.96 3.72 11.89
4/5/2021 4:30:00 PM 9.46 49.028 0.325 7.96 3.67 11.85
4/5/2021 4:45:00 PM 9.47 49.046 0.325 7.96 3.76 11.81
4/5/2021 5:00:00 PM 9.48 49.064 0.324 7.96 3.82 11.77
4/5/2021 5:15:00 PM 9.49 49.082 0.325 7.96 3.78 11.73
4/5/2021 5:30:00 PM 9.48 49.064 0.325 7.95 3.81 11.68
4/5/2021 5:45:00 PM 9.46 49.028 0.325 7.94 3.71 11.62
4/5/2021 6:00:00 PM 9.45 49.01 0.325 7.92 4.02 11.54
4/5/2021 6:15:00 PM 9.42 48.956 0.326 7.92 3.82 11.49
4/5/2021 6:30:00 PM 9.39 48.902 0.325 7.9 3.79 11.43
4/5/2021 6:45:00 PM 9.37 48.866 0.326 7.89 3.81 11.39
4/5/2021 7:00:00 PM 9.35 48.83 0.325 7.88 3.76 11.34
4/5/2021 7:15:00 PM 9.33 48.794 0.326 7.86 3.8 11.31
4/5/2021 7:30:00 PM 9.31 48.758 0.326 7.86 3.84 11.27
4/5/2021 7:45:00 PM 9.29 48.722 0.326 7.84 3.82 11.24
4/5/2021 8:00:00 PM 9.26 48.668 0.326 7.83 3.87 11.2
4/5/2021 8:15:00 PM 9.24 48.632 0.326 7.82 4.27 11.16
4/5/2021 8:30:00 PM 9.22 48.596 0.326 7.81 4.1 11.13
4/5/2021 8:45:00 PM 9.2 48.56 0.326 7.8 3.97 11.11
4/5/2021 9:00:00 PM 9.18 48.524 0.326 7.79 3.86 11.09
4/5/2021 9:15:00 PM 9.17 48.506 0.326 7.78 3.83 11.07
4/5/2021 9:30:00 PM 9.16 48.488 0.326 7.77 3.88 11.06
4/5/2021 9:45:00 PM 9.14 48.452 0.325 7.77 3.94 11.05
4/5/2021 10:00:00 PM 9.13 48.434 0.325 7.77 3.78 11.04
4/5/2021 10:15:00 PM 9.12 48.416 0.325 7.76 3.96 11.02
4/5/2021 10:30:00 PM 9.1 48.38 0.325 7.76 4.03 11.02
4/5/2021 10:45:00 PM 9.08 48.344 0.325 7.75 3.96 11.01
4/5/2021 11:00:00 PM 9.06 48.308 0.325 7.75 3.79 11.01
4/5/2021 11:15:00 PM 9.04 48.272 0.325 7.74 3.82 11.01
4/5/2021 11:30:00 PM 9.01 48.218 0.325 7.74 4.04 11.01
4/5/2021 11:45:00 PM 8.98 48.164 0.325 7.74 3.9 11.01
4/6/2021 12:00:00 AM 8.95 48.11 0.325 7.73 3.73 11.01
4/6/2021 12:15:00 AM 8.92 48.056 0.325 7.73 3.96 11.01
4/6/2021 12:30:00 AM 8.88 47.984 0.325 7.73 3.88 11.01
4/6/2021 12:45:00 AM 8.82 47.876 0.325 7.72 3.92 11.02
4/6/2021 1:00:00 AM 8.77 47.786 0.325 7.72 3.85 11.03
4/6/2021 1:15:00 AM 8.71 47.678 0.325 7.72 3.97 11.04
4/6/2021 1:30:00 AM 8.65 47.57 0.325 7.72 3.82 11.05
4/6/2021 1:45:00 AM 8.6 47.48 0.325 7.72 4 11.05
4/6/2021 2:00:00 AM 8.54 47.372 0.325 7.72 4 11.06
4/6/2021 2:15:00 AM 8.49 47.282 0.325 7.72 4.38 11.07
4/6/2021 2:30:00 AM 8.43 47.174 0.325 7.72 3.94 11.09
4/6/2021 2:45:00 AM 8.38 47.084 0.325 7.71 3.88 11.09
4/6/2021 3:00:00 AM 8.32 46.976 0.325 7.71 3.94 11.11
4/6/2021 3:15:00 AM 8.27 46.886 0.325 7.71 3.82 11.12
4/6/2021 3:30:00 AM 8.23 46.814 0.325 7.71 3.83 11.13
4/6/2021 3:45:00 AM 8.17 46.706 0.325 7.71 3.89 11.15
4/6/2021 4:00:00 AM 8.11 46.598 0.325 7.71 3.89 11.16
4/6/2021 4:15:00 AM 8.06 46.508 0.325 7.71 3.89 11.18
4/6/2021 4:30:00 AM 8 46.4 0.325 7.71 3.95 11.19
4/6/2021 4:45:00 AM 7.94 46.292 0.325 7.71 3.81 11.2
4/6/2021 5:00:00 AM 7.87 46.166 0.325 7.71 3.85 11.23
4/6/2021 5:15:00 AM 7.81 46.058 0.324 7.71 4 11.25
4/6/2021 5:30:00 AM 7.74 45.932 0.323 7.71 4 11.26
4/6/2021 5:45:00 AM 7.68 45.824 0.322 7.71 3.89 11.28
4/6/2021 6:00:00 AM 7.61 45.698 0.322 7.71 3.93 11.3
4/6/2021 6:15:00 AM 7.55 45.59 0.323 7.71 3.88 11.33
4/6/2021 6:30:00 AM 7.51 45.518 0.323 7.71 3.91 11.34
4/6/2021 6:45:00 AM 7.46 45.428 0.323 7.71 4.66 11.36
4/6/2021 7:00:00 AM 7.41 45.338 0.324 7.71 4.03 11.38
4/6/2021 7:15:00 AM 7.36 45.248 0.324 7.71 3.81 11.42
4/6/2021 7:30:00 AM 7.33 45.194 0.324 7.71 3.95 11.47
4/6/2021 7:45:00 AM 7.28 45.104 0.324 7.72 3.99 11.52
4/6/2021 8:00:00 AM 7.25 45.05 0.324 7.73 3.75 11.58
4/6/2021 8:15:00 AM 7.23 45.014 0.324 7.74 4.06 11.64
4/6/2021 8:30:00 AM 7.25 45.05 0.324 7.75 3.77 11.7
4/6/2021 8:45:00 AM 7.26 45.068 0.324 7.76 3.87 11.75
4/6/2021 9:00:00 AM 7.27 45.086 0.324 7.77 3.91 11.79
4/6/2021 9:15:00 AM 7.29 45.122 0.325 7.77 6.41 11.84
4/6/2021 9:30:00 AM 7.34 45.212 0.324 7.78 3.73 11.88
4/6/2021 9:45:00 AM 7.43 45.374 0.324 7.8 3.61 11.93
4/6/2021 10:00:00 AM 7.57 45.626 0.324 7.81 3.7 11.97
4/6/2021 10:15:00 AM 7.65 45.77 0.324 7.81 3.8 11.96
4/6/2021 10:30:00 AM 7.77 45.986 0.324 7.82 3.65 11.98
4/6/2021 10:45:00 AM 7.85 46.13 0.324 7.83 3.77 11.98
4/6/2021 11:00:00 AM 7.96 46.328 0.324 7.84 3.74 11.99
4/6/2021 11:15:00 AM 8.07 46.526 0.324 7.84 3.64 11.97
4/6/2021 11:30:00 AM 8.21 46.778 0.324 7.85 3.7 11.96
4/6/2021 11:45:00 AM 8.37 47.066 0.323 7.86 3.71 11.96
4/6/2021 12:00:00 PM 8.58 47.444 0.324 7.86 3.56 11.93
4/6/2021 12:15:00 PM 8.83 47.894 0.323 7.87 3.57 11.92
4/6/2021 12:30:00 PM 9.02 48.236 0.323 7.89 3.9 11.91
4/6/2021 12:45:00 PM 9.15 48.47 0.322 7.9 3.59 11.9
4/6/2021 1:00:00 PM 9.4 48.92 0.323 7.91 4.07 11.87
4/6/2021 1:15:00 PM 9.66 49.388 0.322 7.91 3.65 11.82
4/6/2021 1:30:00 PM 9.91 49.838 0.322 7.92 3.78 11.78
4/6/2021 1:45:00 PM 10.24 50.432 0.321 7.93 3.46 11.74
4/6/2021 2:00:00 PM 10.48 50.864 0.321 7.93 3.58 11.7
4/6/2021 2:15:00 PM 10.75 51.35 0.321 7.94 3.73 11.65
4/6/2021 2:30:00 PM 10.95 51.71 0.322 7.95 3.58 11.61
4/6/2021 2:45:00 PM 11.18 52.124 0.32 7.95 3.66 11.54
4/6/2021 3:00:00 PM 11.39 52.502 0.32 7.95 3.62 11.48
4/6/2021 3:15:00 PM 11.61 52.898 0.32 7.96 3.59 11.46
4/6/2021 3:30:00 PM 11.89 53.402 0.32 7.97 3.47 11.4
4/6/2021 3:45:00 PM 11.95 53.51 0.32 7.98 3.69 11.34
4/6/2021 4:00:00 PM 12.1 53.78 0.32 7.98 3.65 11.27
4/6/2021 4:15:00 PM 12.16 53.888 0.318 7.98 3.54 11.21
4/6/2021 4:30:00 PM 12.25 54.05 0.318 7.99 4.23 11.17
4/6/2021 4:45:00 PM 12.41 54.338 0.318 7.99 3.97 11.15
4/6/2021 5:00:00 PM 12.41 54.338 0.316 8 3.71 11.09
4/6/2021 5:15:00 PM 12.39 54.302 0.316 7.99 3.63 11.03
4/6/2021 5:30:00 PM 12.39 54.302 0.315 7.99 3.6 10.97
4/6/2021 5:45:00 PM 12.41 54.338 0.313 7.98 3.59 10.94
4/6/2021 6:00:00 PM 12.37 54.266 0.312 7.98 3.62 10.87
4/6/2021 6:15:00 PM 12.38 54.284 0.311 7.96 3.73 10.83
4/6/2021 6:30:00 PM 12.39 54.302 0.309 7.95 3.68 10.79
4/6/2021 6:45:00 PM 12.41 54.338 0.307 7.95 3.65 10.72
4/6/2021 7:00:00 PM 12.41 54.338 0.305 7.94 3.68 10.69
4/6/2021 7:15:00 PM 12.4 54.32 0.303 7.93 3.79 10.62
4/6/2021 7:30:00 PM 12.36 54.248 0.3 7.91 3.63 10.56
4/6/2021 7:45:00 PM 12.32 54.176 0.298 7.89 4 10.48
4/6/2021 8:00:00 PM 12.28 54.104 0.295 7.87 3.76 10.42
4/6/2021 8:15:00 PM 12.24 54.032 0.292 7.85 3.78 10.37
4/6/2021 8:30:00 PM 12.19 53.942 0.288 7.83 3.81 10.34
4/6/2021 8:45:00 PM 12.15 53.87 0.285 7.82 6.21 10.31
4/6/2021 9:00:00 PM 12.1 53.78 0.281 7.81 4.23 10.29
4/6/2021 9:15:00 PM 12.04 53.672 0.276 7.8 4.74 10.27
4/6/2021 9:30:00 PM 11.99 53.582 0.27 7.79 3.83 10.28
4/6/2021 9:45:00 PM 11.93 53.474 0.266 7.78 4.07 10.27
4/6/2021 10:00:00 PM 11.88 53.384 0.259 7.78 3.89 10.26
4/6/2021 10:15:00 PM 11.82 53.276 0.253 7.77 3.71 10.26
4/6/2021 10:30:00 PM 11.78 53.204 0.245 7.76 3.73 10.26
4/6/2021 10:45:00 PM 11.74 53.132 0.237 7.75 3.79 10.24
4/6/2021 11:00:00 PM 11.69 53.042 0.229 7.75 3.76 10.24
4/6/2021 11:15:00 PM 11.66 52.988 0.22 7.75 4.24 10.25
4/6/2021 11:30:00 PM 11.62 52.916 0.212 7.75 3.78 10.25
4/6/2021 11:45:00 PM 11.57 52.826 0.2 7.74 4.07 10.26
4/7/2021 12:00:00 AM 11.52 52.736 0.191 7.74 3.76 10.26
4/7/2021 12:15:00 AM 11.48 52.664 0.181 7.73 3.79 10.26
4/7/2021 12:30:00 AM 11.45 52.61 0.169 7.73 3.94 10.27
4/7/2021 12:45:00 AM 11.4 52.52 0.157 7.73 3.74 10.29
4/7/2021 1:00:00 AM 11.34 52.412 0.148 7.73 3.74 10.3
4/7/2021 1:15:00 AM 11.27 52.286 0.135 7.72 3.74 10.31
4/7/2021 1:30:00 AM 11.19 52.142 0.125 7.72 3.84 10.32
4/7/2021 1:45:00 AM 11.12 52.016 0.114 7.72 3.94 10.35
4/7/2021 2:00:00 AM 11.05 51.89 0.104 7.72 3.69 10.36
4/7/2021 2:15:00 AM 10.98 51.764 0.094 7.71 3.9 10.37
4/7/2021 2:30:00 AM 10.89 51.602 0.086 7.71 3.75 10.39
4/7/2021 2:45:00 AM 10.82 51.476 0.079 7.71 3.82 10.41
4/7/2021 3:00:00 AM 10.75 51.35 0.071 7.71 3.81 10.42
4/7/2021 3:15:00 AM 10.68 51.224 0.065 7.71 3.72 10.44
4/7/2021 3:30:00 AM 10.62 51.116 0.058 7.71 3.9 10.45
4/7/2021 3:45:00 AM 10.56 51.008 0.054 7.71 3.82 10.46
4/7/2021 4:00:00 AM 10.49 50.882 0.049 7.71 3.99 10.48
4/7/2021 4:15:00 AM 10.44 50.792 0.045 7.7 3.94 10.49
4/7/2021 4:30:00 AM 10.38 50.684 0.04 7.7 3.77 10.51
4/7/2021 4:45:00 AM 10.33 50.594 0.037 7.7 3.82 10.52
4/7/2021 5:00:00 AM 10.27 50.486 0.034 7.7 3.83 10.54
4/7/2021 5:15:00 AM 10.22 50.396 0.031 7.7 3.87 10.55
4/7/2021 5:30:00 AM 10.15 50.27 0.028 7.7 3.9 10.56
4/7/2021 5:45:00 AM 10.09 50.162 0.026 7.7 3.84 10.58
4/7/2021 6:00:00 AM 10.03 50.054 0.024 7.7 4.03 10.6
4/7/2021 6:15:00 AM 9.96 49.928 0.022 7.7 4.04 10.6
4/7/2021 6:30:00 AM 9.9 49.82 0.02 7.7 3.84 10.63
4/7/2021 6:45:00 AM 9.83 49.694 0.018 7.7 3.91 10.65
4/7/2021 7:00:00 AM 9.77 49.586 0.017 7.7 3.97 10.68
4/7/2021 7:15:00 AM 9.71 49.478 0.017 7.7 3.94 10.71
4/7/2021 7:30:00 AM 9.68 49.424 0.016 7.71 3.87 10.76
4/7/2021 7:45:00 AM 9.64 49.352 0.015 7.71 3.9 10.79
4/7/2021 8:00:00 AM 9.62 49.316 0.014 7.72 3.83 10.86
4/7/2021 8:15:00 AM 9.6 49.28 0.015 7.74 4.11 10.96
4/7/2021 8:30:00 AM 9.6 49.28 0.013 7.75 3.81 11.04
4/7/2021 8:45:00 AM 9.61 49.298 0.013 7.76 3.93 11.1
4/7/2021 9:00:00 AM 9.6 49.28 0.013 7.78 3.89 11.16
4/7/2021 9:15:00 AM 9.6 49.28 0.013 7.78 3.84 11.18
4/7/2021 9:30:00 AM 9.57 49.226 0.011 7.78 3.96 11.19
4/7/2021 9:45:00 AM 9.56 49.208 0.012 7.78 3.88 11.19
4/7/2021 10:00:00 AM 9.55 49.19 0.012 7.79 3.82 11.22
4/7/2021 10:15:00 AM 9.57 49.226 0.011 7.79 3.96 11.23
4/7/2021 10:30:00 AM 9.67 49.406 0.01 7.8 3.98 11.31
4/7/2021 10:45:00 AM 9.79 49.622 0.01 7.82 4.13 11.35
4/7/2021 11:00:00 AM 9.87 49.766 0.009 7.83 3.85 11.39
4/7/2021 11:15:00 AM 10 50 0.01 7.84 3.81 11.41
4/7/2021 11:30:00 AM 10.14 50.252 0.009 7.85 3.76 11.43
4/7/2021 11:45:00 AM 10.31 50.558 0.009 7.86 3.85 11.42
4/7/2021 12:00:00 PM 10.5 50.9 0.008 7.87 3.89 11.41
4/7/2021 12:15:00 PM 10.68 51.224 0.01 7.89 3.76 11.41
4/7/2021 12:30:00 PM 10.86 51.548 0.01 7.89 3.82 11.4
4/7/2021 12:45:00 PM 11.07 51.926 0.01 7.91 3.75 11.39
4/7/2021 1:00:00 PM 11.29 52.322 0.009 7.91 3.88 11.35
4/7/2021 1:15:00 PM 11.54 52.772 0.008 7.92 4.17 11.34
4/7/2021 1:30:00 PM 11.82 53.276 0.01 7.93 3.82 11.3
4/7/2021 1:45:00 PM 12.11 53.798 0.008 7.94 3.72 11.29
4/7/2021 2:00:00 PM 12.33 54.194 0.009 7.95 3.82 11.25
4/7/2021 2:15:00 PM 12.4 54.32 0.01 7.96 3.82 11.19
4/7/2021 2:30:00 PM 12.63 54.734 0.01 7.96 3.74 11.14
4/7/2021 2:45:00 PM 12.69 54.842 0.009 7.97 3.78 11.08
4/7/2021 3:00:00 PM 12.66 54.788 0.009 7.98 3.87 11.02
4/7/2021 3:15:00 PM 12.97 55.346 0.01 7.97 3.86 11
4/7/2021 3:30:00 PM 13.21 55.778 0.01 7.98 3.8 10.99
4/7/2021 3:45:00 PM 13.18 55.724 0.011 7.99 3.99 10.92
4/7/2021 4:00:00 PM 13.2 55.76 0.011 7.99 3.98 10.89
4/7/2021 4:15:00 PM 13.46 56.228 0.009 7.99 3.79 10.87
4/7/2021 4:30:00 PM 13.41 56.138 0.009 8 3.76 10.8
4/7/2021 4:45:00 PM 13.32 55.976 0.01 7.98 3.89 10.69
4/7/2021 5:00:00 PM 13.34 56.012 0.008 7.97 3.81 10.64
4/7/2021 5:15:00 PM 13.32 55.976 0.01 7.97 3.87 10.63
4/7/2021 5:30:00 PM 13.26 55.868 0.01 7.97 3.9 10.61
4/7/2021 5:45:00 PM 13.24 55.832 0.01 7.97 3.84 10.59
4/7/2021 6:00:00 PM 13.24 55.832 0.009 7.96 3.81 10.57
4/7/2021 6:15:00 PM 13.22 55.796 0.01 7.96 3.91 10.52
4/7/2021 6:30:00 PM 13.21 55.778 0.011 7.95 3.83 10.51
4/7/2021 6:45:00 PM 13.17 55.706 0.011 7.94 3.72 10.45
4/7/2021 7:00:00 PM 13.13 55.634 0.011 7.92 3.88 10.39
4/7/2021 7:15:00 PM 13.07 55.526 0.009 7.9 3.78 10.34
4/7/2021 7:30:00 PM 13 55.4 0.008 7.88 3.77 10.28
4/7/2021 7:45:00 PM 12.93 55.274 0.008 7.86 3.83 10.23
4/7/2021 8:00:00 PM 12.86 55.148 0.009 7.85 3.82 10.19
4/7/2021 8:15:00 PM 12.8 55.04 0.01 7.83 3.9 10.15
4/7/2021 8:30:00 PM 12.73 54.914 0.009 7.81 4.49 10.13
4/7/2021 8:45:00 PM 12.69 54.842 0.009 7.8 4.01 10.11
4/7/2021 9:00:00 PM 12.66 54.788 0.009 7.8 4.13 10.1
4/7/2021 9:15:00 PM 12.64 54.752 0.01 7.79 4.6 10.09
4/7/2021 9:30:00 PM 12.6 54.68 0.01 7.79 4.33 10.08
4/7/2021 9:45:00 PM 12.55 54.59 0.011 7.78 3.97 10.07
4/7/2021 10:00:00 PM 12.5 54.5 0.01 7.77 4.02 10.06
4/7/2021 10:15:00 PM 12.45 54.41 0.01 7.77 4.02 10.06
4/7/2021 10:30:00 PM 12.41 54.338 0.009 7.76 4.07 10.06
4/7/2021 10:45:00 PM 12.36 54.248 0.01 7.76 4 10.06
4/7/2021 11:00:00 PM 12.31 54.158 0.009 7.75 3.91 10.06
4/7/2021 11:15:00 PM 12.26 54.068 0.009 7.75 3.81 10.06
4/7/2021 11:30:00 PM 12.21 53.978 0.008 7.74 4.02 10.07
4/7/2021 11:45:00 PM 12.16 53.888 0.009 7.74 4.02 10.08
4/8/2021 12:00:00 AM 12.11 53.798 0.01 7.74 3.85 10.08
4/8/2021 12:15:00 AM 12.05 53.69 0.01 7.74 3.92 10.1
4/8/2021 12:30:00 AM 11.99 53.582 0.009 7.74 3.96 10.09
4/8/2021 12:45:00 AM 11.94 53.492 0.01 7.73 3.92 10.11
4/8/2021 1:00:00 AM 11.87 53.366 0.011 7.73 4.15 10.12
4/8/2021 1:15:00 AM 11.81 53.258 0.011 7.73 4.1 10.13
4/8/2021 1:30:00 AM 11.73 53.114 0.01 7.73 4.07 10.16
4/8/2021 1:45:00 AM 11.66 52.988 0.009 7.73 4.16 10.17
4/8/2021 2:00:00 AM 11.59 52.862 0.009 7.73 4.09 10.19
4/8/2021 2:15:00 AM 11.51 52.718 0.01 7.73 3.95 10.2
4/8/2021 2:30:00 AM 11.44 52.592 0.01 7.72 4.01 10.23
4/8/2021 2:45:00 AM 11.38 52.484 0.009 7.72 3.99 10.24
4/8/2021 3:00:00 AM 11.31 52.358 0.01 7.72 4.12 10.25
4/8/2021 3:15:00 AM 11.24 52.232 0.011 7.72 4.15 10.26
4/8/2021 3:30:00 AM 11.18 52.124 0.01 7.72 4.05 10.28
4/8/2021 3:45:00 AM 11.12 52.016 0.009 7.72 4.13 10.3
4/8/2021 4:00:00 AM 11.07 51.926 0.009 7.72 4.08 10.31
4/8/2021 4:15:00 AM 11.01 51.818 0.009 7.72 4.08 10.32
4/8/2021 4:30:00 AM 10.96 51.728 0.009 7.72 3.88 10.34
4/8/2021 4:45:00 AM 10.91 51.638 0.008 7.72 4.02 10.34
4/8/2021 5:00:00 AM 10.85 51.53 0.009 7.72 4.02 10.36
4/8/2021 5:15:00 AM 10.79 51.422 0.009 7.71 4.43 10.38
4/8/2021 5:30:00 AM 10.73 51.314 0.009 7.72 4.26 10.39
4/8/2021 5:45:00 AM 10.66 51.188 0.009 7.71 4.2 10.41
4/8/2021 6:00:00 AM 10.61 51.098 0.009 7.72 4.1 10.43
4/8/2021 6:15:00 AM 10.55 50.99 0.01 7.72 3.88 10.44
4/8/2021 6:30:00 AM 10.48 50.864 0.009 7.71 4.76 10.45
4/8/2021 6:45:00 AM 10.42 50.756 0.009 7.72 4.34 10.47
4/8/2021 7:00:00 AM 10.36 50.648 0.008 7.72 4.08 10.5
4/8/2021 7:15:00 AM 10.31 50.558 0.009 7.72 4.42 10.54
4/8/2021 7:30:00 AM 10.27 50.486 0.009 7.73 4.07 10.6
4/8/2021 7:45:00 AM 10.23 50.414 0.009 7.74 4.12 10.66
4/8/2021 8:00:00 AM 10.19 50.342 0.009 7.74 3.97 10.71
4/8/2021 8:15:00 AM 10.16 50.288 0.009 7.75 4.17 10.77
4/8/2021 8:30:00 AM 10.17 50.306 0.009 7.76 4 10.84
4/8/2021 8:45:00 AM 10.19 50.342 0.009 7.77 4.06 10.89
4/8/2021 9:00:00 AM 10.22 50.396 0.01 7.78 4.2 10.94
4/8/2021 9:15:00 AM 10.25 50.45 0.009 7.79 4.16 11.01
4/8/2021 9:30:00 AM 10.31 50.558 0.01 7.8 4.12 11.04
4/8/2021 9:45:00 AM 10.39 50.702 0.009 7.81 4.25 11.09
4/8/2021 10:00:00 AM 10.47 50.846 0.009 7.83 4.06 11.12
4/8/2021 10:15:00 AM 10.53 50.954 0.011 7.84 4.13 11.14
4/8/2021 10:30:00 AM 10.63 51.134 0.01 7.85 4.08 11.16
4/8/2021 10:45:00 AM 10.74 51.332 0.011 7.86 4.49 11.18
4/8/2021 11:00:00 AM 10.85 51.53 0.011 7.87 4 11.18
4/8/2021 11:15:00 AM 10.98 51.764 0.01 7.89 4.03 11.2
4/8/2021 11:30:00 AM 11.11 51.998 0.011 7.89 3.93 11.2
4/8/2021 11:45:00 AM 11.26 52.268 0.011 7.9 4.05 11.2
4/8/2021 12:00:00 PM 11.45 52.61 0.012 7.91 3.96 11.18
4/8/2021 12:15:00 PM 11.62 52.916 0.011 7.92 3.95 11.18
4/8/2021 12:30:00 PM 11.86 53.348 0.012 7.93 3.97 11.16
4/8/2021 12:45:00 PM 12.05 53.69 0.011 7.93 3.99 11.12
4/8/2021 1:00:00 PM 12.27 54.086 0.01 7.94 4.54 11.11
4/8/2021 1:15:00 PM 12.51 54.518 0.013 7.95 4 11.1
4/8/2021 1:30:00 PM 12.78 55.004 0.011 7.96 4.17 11.07
4/8/2021 1:45:00 PM 12.98 55.364 0.01 7.95 3.93 11.03
4/8/2021 2:00:00 PM 13.27 55.886 0.011 7.97 3.91 11
4/8/2021 2:15:00 PM 13.52 56.336 0.011 7.98 3.83 10.95
4/8/2021 2:30:00 PM 13.76 56.768 0.012 7.99 3.87 10.91
4/8/2021 2:45:00 PM 13.99 57.182 0.011 8 4.01 10.88
4/8/2021 3:00:00 PM 14.21 57.578 0.01 8.01 3.96 10.83
4/8/2021 3:15:00 PM 14.4 57.92 0.012 8.01 4.02 10.78
4/8/2021 3:30:00 PM 14.57 58.226 0.014 8.02 3.95 10.73
4/8/2021 3:45:00 PM 14.71 58.478 0.012 8.01 3.88 10.67
4/8/2021 4:00:00 PM 14.85 58.73 0.011 8.01 4 10.64
4/8/2021 4:15:00 PM 14.92 58.856 0.011 8.03 3.98 10.58
4/8/2021 4:30:00 PM 14.98 58.964 0.012 8.02 3.83 10.55
4/8/2021 4:45:00 PM 15.03 59.054 0.012 8.02 3.95 10.49
4/8/2021 5:00:00 PM 15.03 59.054 0.012 8.03 4.09 10.45
4/8/2021 5:15:00 PM 15.03 59.054 0.012 8.03 3.92 10.42
4/8/2021 5:30:00 PM 14.95 58.91 0.01 8.02 3.91 10.37
4/8/2021 5:45:00 PM 14.9 58.82 0.011 8.03 3.96 10.33
4/8/2021 6:00:00 PM 14.83 58.694 0.012 8.01 3.82 10.27
4/8/2021 6:15:00 PM 14.74 58.532 0.011 8.01 3.98 10.22
4/8/2021 6:30:00 PM 14.65 58.37 0.012 8 3.94 10.19
4/8/2021 6:45:00 PM 14.58 58.244 0.013 7.99 4.2 10.14
4/8/2021 7:00:00 PM 14.52 58.136 0.013 7.98 3.95 10.09
4/8/2021 7:15:00 PM 14.45 58.01 0.012 7.96 4.07 10.03
4/8/2021 7:30:00 PM 14.38 57.884 0.013 7.94 3.81 9.97
4/8/2021 7:45:00 PM 14.32 57.776 0.013 7.92 4.05 9.9
4/8/2021 8:00:00 PM 14.26 57.668 0.013 7.91 3.89 9.85
4/8/2021 8:15:00 PM 14.2 57.56 0.011 7.9 4.08 9.81
4/8/2021 8:30:00 PM 14.13 57.434 0.012 7.88 4.01 9.78
4/8/2021 8:45:00 PM 14.05 57.29 0.013 7.87 3.89 9.76
4/8/2021 9:00:00 PM 13.98 57.164 0.012 7.86 4.2 9.76
4/8/2021 9:15:00 PM 13.92 57.056 0.013 7.85 4.12 9.75
4/8/2021 9:30:00 PM 13.85 56.93 0.015 7.85 4.13 9.75
4/8/2021 9:45:00 PM 13.78 56.804 0.013 7.84 3.89 9.75
4/8/2021 10:00:00 PM 13.71 56.678 0.012 7.84 4.06 9.76
4/8/2021 10:15:00 PM 13.64 56.552 0.013 7.83 4.26 9.75
4/8/2021 10:30:00 PM 13.58 56.444 0.011 7.83 4.13 9.75
4/8/2021 10:45:00 PM 13.53 56.354 0.012 7.82 4.15 9.75
4/8/2021 11:00:00 PM 13.48 56.264 0.013 7.81 4.09 9.76
4/8/2021 11:15:00 PM 13.45 56.21 0.013 7.81 4.05 9.77
4/8/2021 11:30:00 PM 13.42 56.156 0.013 7.81 3.98 9.77
4/8/2021 11:45:00 PM 13.38 56.084 0.012 7.8 4.04 9.77
4/9/2021 12:00:00 AM 13.34 56.012 0.013 7.8 3.98 9.78
4/9/2021 12:15:00 AM 13.3 55.94 0.013 7.8 4.1 9.77
4/9/2021 12:30:00 AM 13.26 55.868 0.013 7.79 4.1 9.78
4/9/2021 12:45:00 AM 13.22 55.796 0.014 7.79 4.23 9.79
4/9/2021 1:00:00 AM 13.18 55.724 0.014 7.79 4.04 9.79
4/9/2021 1:15:00 AM 13.14 55.652 0.014 7.79 4.01 9.81
4/9/2021 1:30:00 AM 13.1 55.58 0.012 7.79 4.19 9.83
4/9/2021 1:45:00 AM 13.05 55.49 0.012 7.79 4.1 9.83
4/9/2021 2:00:00 AM 13 55.4 0.013 7.79 4.11 9.85
4/9/2021 2:15:00 AM 12.95 55.31 0.012 7.79 4.13 9.87
4/9/2021 2:30:00 AM 12.89 55.202 0.011 7.79 4.17 9.88
4/9/2021 2:45:00 AM 12.84 55.112 0.013 7.78 4.06 9.89
4/9/2021 3:00:00 AM 12.79 55.022 0.012 7.78 4.09 9.9
4/9/2021 3:15:00 AM 12.73 54.914 0.012 7.78 4.12 9.93
4/9/2021 3:30:00 AM 12.68 54.824 0.012 7.78 4.09 9.94
4/9/2021 3:45:00 AM 12.62 54.716 0.013 7.78 3.99 9.95
4/9/2021 4:00:00 AM 12.56 54.608 0.011 7.78 4.1 9.96
4/9/2021 4:15:00 AM 12.51 54.518 0.013 7.78 4.22 9.97
4/9/2021 4:30:00 AM 12.45 54.41 0.013 7.78 4.05 9.99
4/9/2021 4:45:00 AM 12.41 54.338 0.012 7.77 4.03 9.99
4/9/2021 5:00:00 AM 12.37 54.266 0.012 7.77 4.04 10.01
4/9/2021 5:15:00 AM 12.34 54.212 0.011 7.77 4.03 10.01
4/9/2021 5:30:00 AM 12.31 54.158 0.012 7.77 4.16 10.02
4/9/2021 5:45:00 AM 12.28 54.104 0.011 7.77 4.04 10.03
4/9/2021 6:00:00 AM 12.25 54.05 0.012 7.77 4.24 10.04
4/9/2021 6:15:00 AM 12.23 54.014 0.012 7.77 4.15 10.03
4/9/2021 6:30:00 AM 12.2 53.96 0.012 7.77 4.11 10.06
4/9/2021 6:45:00 AM 12.17 53.906 0.012 7.76 4.28 10.05
4/9/2021 7:00:00 AM 12.15 53.87 0.012 7.76 4.7 10.06
4/9/2021 7:15:00 AM 12.12 53.816 0.012 7.76 4.19 10.08
4/9/2021 7:30:00 AM 12.1 53.78 0.011 7.76 4.03 10.09
4/9/2021 7:45:00 AM 12.07 53.726 0.011 7.77 4 10.12
4/9/2021 8:00:00 AM 12.05 53.69 0.012 7.77 4.1 10.13
4/9/2021 8:15:00 AM 12.02 53.636 0.013 7.78 4.1 10.16
4/9/2021 8:30:00 AM 12 53.6 0.012 7.78 4.01 10.21
4/9/2021 8:45:00 AM 11.98 53.564 0.013 7.79 4.18 10.25
4/9/2021 9:00:00 AM 11.97 53.546 0.012 7.8 4.19 10.31
4/9/2021 9:15:00 AM 11.97 53.546 0.011 7.81 4.35 10.36
4/9/2021 9:30:00 AM 11.97 53.546 0.013 7.82 4.24 10.4
4/9/2021 9:45:00 AM 11.96 53.528 0.013 7.82 4.13 10.46
4/9/2021 10:00:00 AM 11.96 53.528 0.012 7.84 4.1 10.5
4/9/2021 10:15:00 AM 11.98 53.564 0.012 7.84 4.25 10.56
4/9/2021 10:30:00 AM 12.01 53.618 0.013 7.86 4.31 10.61
4/9/2021 10:45:00 AM 12.01 53.618 0.012 7.86 4.38 10.64
4/9/2021 11:00:00 AM 11.99 53.582 0.012 7.87 4.27 10.64
4/9/2021 11:15:00 AM 12.04 53.672 0.012 7.88 4.18 10.69
4/9/2021 11:30:00 AM 12.16 53.888 0.013 7.89 4.21 10.75
4/9/2021 11:45:00 AM 12.17 53.906 0.012 7.9 4.27 10.76
4/9/2021 12:00:00 PM 12.19 53.942 0.011 7.91 4.38 10.79
4/9/2021 12:15:00 PM 12.22 53.996 0.012 7.92 4.08 10.81
4/9/2021 12:30:00 PM 12.23 54.014 0.013 7.92 4.29 10.79
4/9/2021 12:45:00 PM 12.23 54.014 0.011 7.93 4.23 10.79
4/9/2021 1:00:00 PM 12.27 54.086 0.013 7.94 4.23 10.79
4/9/2021 1:15:00 PM 12.28 54.104 0.011 7.94 4.55 10.8
4/9/2021 1:30:00 PM 12.34 54.212 0.012 7.94 4.11 10.81
4/9/2021 1:45:00 PM 12.43 54.374 0.013 7.95 4.19 10.84
4/9/2021 2:00:00 PM 12.48 54.464 0.014 7.96 4.22 10.84
4/9/2021 2:15:00 PM 12.51 54.518 0.014 7.97 4.12 10.85
4/9/2021 2:30:00 PM 12.54 54.572 0.015 7.97 4.05 10.83
4/9/2021 2:45:00 PM 12.58 54.644 0.015 7.98 4.17 10.83
4/9/2021 3:00:00 PM 12.7 54.86 0.012 7.98 3.97 10.84
4/9/2021 3:15:00 PM 12.69 54.842 0.014 7.99 4.11 10.82
4/9/2021 3:30:00 PM 12.67 54.806 0.014 7.99 4.05 10.78
4/9/2021 3:45:00 PM 12.69 54.842 0.013 7.98 4.12 10.75
4/9/2021 4:00:00 PM 12.69 54.842 0.013 7.98 4.07 10.73
4/9/2021 4:15:00 PM 12.71 54.878 0.014 7.98 4.07 10.7
4/9/2021 4:30:00 PM 12.76 54.968 0.012 7.98 4.14 10.7
4/9/2021 4:45:00 PM 12.75 54.95 0.013 7.98 4.03 10.65
4/9/2021 5:00:00 PM 12.81 55.058 0.014 7.98 5.7 10.65
4/9/2021 5:15:00 PM 12.86 55.148 0.013 7.98 4.13 10.66
4/9/2021 5:30:00 PM 12.88 55.184 0.013 7.98 4.02 10.65
4/9/2021 5:45:00 PM 12.89 55.202 0.012 7.99 3.95 10.62
4/9/2021 6:00:00 PM 12.88 55.184 0.012 7.98 3.94 10.57
4/9/2021 6:15:00 PM 12.89 55.202 0.013 7.97 4.05 10.54
4/9/2021 6:30:00 PM 12.87 55.166 0.012 7.96 4.22 10.47
4/9/2021 6:45:00 PM 12.84 55.112 0.014 7.95 4.07 10.39
4/9/2021 7:00:00 PM 12.81 55.058 0.012 7.93 3.94 10.33
4/9/2021 7:15:00 PM 12.79 55.022 0.013 7.91 3.89 10.28
4/9/2021 7:30:00 PM 12.78 55.004 0.013 7.9 4.13 10.25
4/9/2021 7:45:00 PM 12.75 54.95 0.013 7.9 4.3 10.22
4/9/2021 8:00:00 PM 12.73 54.914 0.011 7.89 4.59 10.18
4/9/2021 8:15:00 PM 12.71 54.878 0.013 7.88 4 10.15
4/9/2021 8:30:00 PM 12.69 54.842 0.014 7.87 5.51 10.14
4/9/2021 8:45:00 PM 12.67 54.806 0.013 7.86 3.94 10.11
4/9/2021 9:00:00 PM 12.65 54.77 0.012 7.86 4.2 10.11
4/9/2021 9:15:00 PM 12.62 54.716 0.013 7.85 4.23 10.1
4/9/2021 9:30:00 PM 12.59 54.662 0.013 7.85 4.07 10.09
4/9/2021 9:45:00 PM 12.57 54.626 0.014 7.84 4.13 10.08
4/9/2021 10:00:00 PM 12.54 54.572 0.014 7.84 4.05 10.09
4/9/2021 10:15:00 PM 12.52 54.536 0.014 7.83 4.05 10.08
4/9/2021 10:30:00 PM 12.5 54.5 0.013 7.83 4.09 10.07
4/9/2021 10:45:00 PM 12.47 54.446 0.013 7.83 4.05 10.08
4/9/2021 11:00:00 PM 12.45 54.41 0.013 7.82 4.01 10.07
4/9/2021 11:15:00 PM 12.42 54.356 0.012 7.82 4.17 10.07
4/9/2021 11:30:00 PM 12.4 54.32 0.012 7.82 4.03 10.07
4/9/2021 11:45:00 PM 12.37 54.266 0.012 7.81 4.32 10.07
4/10/2021 12:00:00 AM 12.34 54.212 0.012 7.81 4.18 10.08
4/10/2021 12:15:00 AM 12.31 54.158 0.013 7.81 4.21 10.07
4/10/2021 12:30:00 AM 12.29 54.122 0.012 7.8 4.26 10.09
4/10/2021 12:45:00 AM 12.26 54.068 0.012 7.8 4.01 10.09
4/10/2021 1:00:00 AM 12.24 54.032 0.012 7.8 4.12 10.1
4/10/2021 1:15:00 AM 12.22 53.996 0.012 7.8 4.12 10.11
4/10/2021 1:30:00 AM 12.19 53.942 0.012 7.79 4.1 10.11
4/10/2021 1:45:00 AM 12.17 53.906 0.013 7.79 4.13 10.11
4/10/2021 2:00:00 AM 12.14 53.852 0.013 7.79 4.06 10.11
4/10/2021 2:15:00 AM 12.12 53.816 0.013 7.79 4.01 10.13
4/10/2021 2:30:00 AM 12.09 53.762 0.013 7.79 4.46 10.13
4/10/2021 2:45:00 AM 12.07 53.726 0.013 7.79 4.09 10.14
4/10/2021 3:00:00 AM 12.04 53.672 0.013 7.79 4.12 10.14
4/10/2021 3:15:00 AM 12.01 53.618 0.013 7.78 4.09 10.15
4/10/2021 3:30:00 AM 11.98 53.564 0.012 7.78 4.19 10.14
4/10/2021 3:45:00 AM 11.95 53.51 0.013 7.78 4.06 10.15
4/10/2021 4:00:00 AM 11.93 53.474 0.013 7.78 4.2 10.16
4/10/2021 4:15:00 AM 11.9 53.42 0.014 7.78 4.22 10.17
4/10/2021 4:30:00 AM 11.88 53.384 0.014 7.78 4.06 10.17
4/10/2021 4:45:00 AM 11.86 53.348 0.013 7.77 4.14 10.17
4/10/2021 5:00:00 AM 11.84 53.312 0.014 7.77 4.13 10.17
4/10/2021 5:15:00 AM 11.81 53.258 0.013 7.77 4.32 10.18
4/10/2021 5:30:00 AM 11.79 53.222 0.013 7.78 4.13 10.19
4/10/2021 5:45:00 AM 11.77 53.186 0.013 7.77 4.03 10.19
4/10/2021 6:00:00 AM 11.75 53.15 0.013 7.77 4.37 10.19
4/10/2021 6:15:00 AM 11.73 53.114 0.012 7.77 4.33 10.2
4/10/2021 6:30:00 AM 11.72 53.096 0.012 7.77 4.35 10.2
4/10/2021 6:45:00 AM 11.7 53.06 0.013 7.77 4.17 10.21
4/10/2021 7:00:00 AM 11.68 53.024 0.013 7.77 4.77 10.2
4/10/2021 7:15:00 AM 11.65 52.97 0.012 7.77 4.25 10.24
4/10/2021 7:30:00 AM 11.65 52.97 0.012 7.78 4.06 10.29
4/10/2021 7:45:00 AM 11.65 52.97 0.012 7.79 4.26 10.33
4/10/2021 8:00:00 AM 11.67 53.006 0.012 7.79 4.21 10.37
4/10/2021 8:15:00 AM 11.69 53.042 0.012 7.81 4.23 10.44
4/10/2021 8:30:00 AM 11.74 53.132 0.012 7.82 4.15 10.5
4/10/2021 8:45:00 AM 11.78 53.204 0.013 7.83 4.2 10.55
4/10/2021 9:00:00 AM 11.81 53.258 0.012 7.84 4.22 10.59
4/10/2021 9:15:00 AM 11.86 53.348 0.013 7.85 5.46 10.61
4/10/2021 9:30:00 AM 11.93 53.474 0.014 7.86 4.36 10.65
4/10/2021 9:45:00 AM 11.98 53.564 0.014 7.87 4.29 10.68
4/10/2021 10:00:00 AM 12.08 53.744 0.013 7.89 4.36 10.72
4/10/2021 10:15:00 AM 12.21 53.978 0.013 7.89 4.11 10.74
4/10/2021 10:30:00 AM 12.32 54.176 0.013 7.91 4.17 10.74
4/10/2021 10:45:00 AM 12.42 54.356 0.013 7.91 4.2 10.74
4/10/2021 11:00:00 AM 12.53 54.554 0.015 7.92 4.09 10.74
4/10/2021 11:15:00 AM 12.66 54.788 0.013 7.93 4.24 10.75
4/10/2021 11:30:00 AM 12.82 55.076 0.014 7.94 4.19 10.73
4/10/2021 11:45:00 AM 13 55.4 0.013 7.95 4.26 10.74
4/10/2021 12:00:00 PM 13.18 55.724 0.015 7.95 4.01 10.74
4/10/2021 12:15:00 PM 13.35 56.03 0.015 7.96 4.19 10.71
4/10/2021 12:30:00 PM 13.52 56.336 0.014 7.97 4.08 10.7
4/10/2021 12:45:00 PM 13.76 56.768 0.014 7.98 3.94 10.69
4/10/2021 1:00:00 PM 13.97 57.146 0.015 7.99 4.14 10.67
4/10/2021 1:15:00 PM 14.19 57.542 0.012 8 4.02 10.65
4/10/2021 1:30:00 PM 14.39 57.902 0.014 8 4.1 10.63
4/10/2021 1:45:00 PM 14.6 58.28 0.015 8.02 4.01 10.61
4/10/2021 2:00:00 PM 14.8 58.64 0.012 8.02 4.05 10.58
4/10/2021 2:15:00 PM 14.94 58.892 0.013 8.03 4.17 10.54
4/10/2021 2:30:00 PM 15.1 59.18 0.015 8.03 4.02 10.51
4/10/2021 2:45:00 PM 15.28 59.504 0.015 8.04 4.13 10.48
4/10/2021 3:00:00 PM 15.42 59.756 0.013 8.04 4.11 10.45
4/10/2021 3:15:00 PM 15.56 60.008 0.014 8.05 4.17 10.42
4/10/2021 3:30:00 PM 15.69 60.242 0.014 8.06 4.09 10.37
4/10/2021 3:45:00 PM 15.8 60.44 0.014 8.06 4.05 10.34
4/10/2021 4:00:00 PM 15.86 60.548 0.016 8.06 4.08 10.29
4/10/2021 4:15:00 PM 15.9 60.62 0.016 8.07 3.98 10.25
4/10/2021 4:30:00 PM 15.93 60.674 0.014 8.07 4.12 10.22
4/10/2021 4:45:00 PM 15.93 60.674 0.015 8.07 4.08 10.19
4/10/2021 5:00:00 PM 15.92 60.656 0.015 8.07 4.23 10.15
4/10/2021 5:15:00 PM 15.88 60.584 0.014 8.07 3.9 10.12
4/10/2021 5:30:00 PM 15.84 60.512 0.015 8.07 3.91 10.09
4/10/2021 5:45:00 PM 15.79 60.422 0.015 8.07 4.05 10.05
4/10/2021 6:00:00 PM 15.73 60.314 0.014 8.06 4.28 10.01
4/10/2021 6:15:00 PM 15.67 60.206 0.015 8.05 4.12 9.97
4/10/2021 6:30:00 PM 15.62 60.116 0.014 8.04 4.17 9.92
4/10/2021 6:45:00 PM 15.56 60.008 0.013 8.03 4.02 9.87
4/10/2021 7:00:00 PM 15.5 59.9 0.013 8.02 4 9.81
4/10/2021 7:15:00 PM 15.44 59.792 0.014 8 4.13 9.75
4/10/2021 7:30:00 PM 15.38 59.684 0.015 7.98 3.97 9.67
4/10/2021 7:45:00 PM 15.31 59.558 0.015 7.97 4.11 9.61
4/10/2021 8:00:00 PM 15.25 59.45 0.015 7.95 4.42 9.57
4/10/2021 8:15:00 PM 15.19 59.342 0.015 7.93 4.69 9.53
4/10/2021 8:30:00 PM 15.12 59.216 0.015 7.92 4.16 9.51
4/10/2021 8:45:00 PM 15.06 59.108 0.016 7.91 4.16 9.48
4/10/2021 9:00:00 PM 15.02 59.036 0.015 7.9 4.33 9.46
4/10/2021 9:15:00 PM 14.96 58.928 0.012 7.9 4.27 9.47
4/10/2021 9:30:00 PM 14.9 58.82 0.015 7.89 4.59 9.44
4/10/2021 9:45:00 PM 14.85 58.73 0.013 7.88 4.59 9.44
4/10/2021 10:00:00 PM 14.79 58.622 0.014 7.88 4.19 9.45
4/10/2021 10:15:00 PM 14.75 58.55 0.014 7.87 4.15 9.44
4/10/2021 10:30:00 PM 14.7 58.46 0.015 7.86 4.05 9.44
4/10/2021 10:45:00 PM 14.66 58.388 0.014 7.86 4.11 9.44
4/10/2021 11:00:00 PM 14.63 58.334 0.015 7.85 4.37 9.43
4/10/2021 11:15:00 PM 14.59 58.262 0.015 7.84 4.23 9.43
4/10/2021 11:30:00 PM 14.56 58.208 0.014 7.84 4.13 9.44
4/10/2021 11:45:00 PM 14.52 58.136 0.016 7.84 4.21 9.43
4/11/2021 12:00:00 AM 14.49 58.082 0.014 7.83 4.29 9.44
4/11/2021 12:15:00 AM 14.45 58.01 0.015 7.83 4.3 9.44
4/11/2021 12:30:00 AM 14.42 57.956 0.015 7.83 5.11 9.45
4/11/2021 12:45:00 AM 14.38 57.884 0.015 7.82 4.19 9.45
4/11/2021 1:00:00 AM 14.35 57.83 0.015 7.82 4.52 9.45
4/11/2021 1:15:00 AM 14.31 57.758 0.015 7.81 4.33 9.45
4/11/2021 1:30:00 AM 14.27 57.686 0.014 7.81 4.32 9.47
4/11/2021 1:45:00 AM 14.22 57.596 0.013 7.8 4.42 9.48
4/11/2021 2:00:00 AM 14.18 57.524 0.014 7.8 4.5 9.47
4/11/2021 2:15:00 AM 14.14 57.452 0.013 7.79 4.68 9.47
4/11/2021 2:30:00 AM 14.09 57.362 0.014 7.79 4.59 9.48
4/11/2021 2:45:00 AM 14.05 57.29 0.014 7.78 4.65 9.49
4/11/2021 3:00:00 AM 13.99 57.182 0.013 7.78 4.77 9.51
4/11/2021 3:15:00 AM 13.95 57.11 0.015 7.78 4.81 9.51
4/11/2021 3:30:00 AM 13.9 57.02 0.015 7.77 5.11 9.51
4/11/2021 3:45:00 AM 13.85 56.93 0.015 7.77 5 9.51
4/11/2021 4:00:00 AM 13.8 56.84 0.015 7.77 5.18 9.52
4/11/2021 4:15:00 AM 13.75 56.75 0.015 7.76 5.47 9.54
4/11/2021 4:30:00 AM 13.71 56.678 0.014 7.76 5.54 9.55
4/11/2021 4:45:00 AM 13.65 56.57 0.012 7.76 5.49 9.55
4/11/2021 5:00:00 AM 13.61 56.498 0.014 7.75 5.83 9.55
4/11/2021 5:15:00 AM 13.56 56.408 0.014 7.74 6.51 9.57
4/11/2021 5:30:00 AM 13.53 56.354 0.013 7.75 7.01 9.57
4/11/2021 5:45:00 AM 13.49 56.282 0.012 7.74 6.85 9.58
4/11/2021 6:00:00 AM 13.46 56.228 0.013 7.74 6.92 9.58
4/11/2021 6:15:00 AM 13.43 56.174 0.013 7.73 6.52 9.58
4/11/2021 6:30:00 AM 13.4 56.12 0.013 7.73 6.87 9.59
4/11/2021 6:45:00 AM 13.38 56.084 0.013 7.73 6.92 9.6
4/11/2021 7:00:00 AM 13.34 56.012 0.013 7.72 6.84 9.6
4/11/2021 7:15:00 AM 13.31 55.958 0.013 7.71 7.47 9.62
4/11/2021 7:30:00 AM 13.28 55.904 0.014 7.71 7.31 9.63
4/11/2021 7:45:00 AM 13.25 55.85 0.013 7.71 7.78 9.66
4/11/2021 8:00:00 AM 13.21 55.778 0.014 7.71 9.32 9.68
4/11/2021 8:15:00 AM 13.18 55.724 0.013 7.71 8.5 9.69
4/11/2021 8:30:00 AM 13.14 55.652 0.013 7.71 8.73 9.72
4/11/2021 8:45:00 AM 13.1 55.58 0.012 7.7 9.33 9.73
4/11/2021 9:00:00 AM 13.06 55.508 0.013 7.7 10.57 9.77
4/11/2021 9:15:00 AM 13.03 55.454 0.012 7.71 9.03 9.79
4/11/2021 9:30:00 AM 13 55.4 0.012 7.71 10.23 9.84
4/11/2021 9:45:00 AM 13 55.4 0.012 7.71 10.78 9.89
4/11/2021 10:00:00 AM 13.02 55.436 0.011 7.71 10.75 9.94
4/11/2021 10:15:00 AM 13.05 55.49 0.012 7.72 10.61 9.99
4/11/2021 10:30:00 AM 13.07 55.526 0.012 7.73 10.62 10.03
4/11/2021 10:45:00 AM 13.08 55.544 0.012 7.74 11.11 10.05
4/11/2021 11:00:00 AM 13.11 55.598 0.012 7.74 10.77 10.08
4/11/2021 11:15:00 AM 13.17 55.706 0.012 7.75 13.04 10.1
4/11/2021 11:30:00 AM 13.23 55.814 0.012 7.76 13.25 10.11
4/11/2021 11:45:00 AM 13.28 55.904 0.012 7.76 13.83 10.13
4/11/2021 12:00:00 PM 13.31 55.958 0.012 7.76 12.9 10.13
4/11/2021 12:15:00 PM 13.42 56.156 0.011 7.76 11.97 10.13
4/11/2021 12:30:00 PM 13.49 56.282 0.012 7.77 11.26 10.14
4/11/2021 12:45:00 PM 13.65 56.57 0.012 7.78 10.49 10.14
4/11/2021 1:00:00 PM 13.66 56.588 0.012 7.78 15.63 10.11
4/11/2021 1:15:00 PM 13.64 56.552 0.012 7.77 13.76 10.05
4/11/2021 1:30:00 PM 13.64 56.552 0.012 7.77 14.23 10.01
4/11/2021 1:45:00 PM 13.66 56.588 0.012 7.76 14.82 10
4/11/2021 2:00:00 PM 13.68 56.624 0.012 7.77 13.67 10.01
4/11/2021 2:15:00 PM 13.71 56.678 0.013 7.77 15.13 10.01
4/11/2021 2:30:00 PM 13.78 56.804 0.012 7.78 14.68 10.03
4/11/2021 2:45:00 PM 13.95 57.11 0.012 7.78 14.97 10.04
4/11/2021 3:00:00 PM 14.06 57.308 0.012 7.79 14.37 10.05
4/11/2021 3:15:00 PM 14.09 57.362 0.012 7.79 15.26 10.04
4/11/2021 3:30:00 PM 14.24 57.632 0.012 7.79 14.04 10.02
4/11/2021 3:45:00 PM 14.29 57.722 0.012 7.79 21.93 10.01
4/11/2021 4:00:00 PM 14.36 57.848 0.012 7.8 16.17 10
4/11/2021 4:15:00 PM 14.5 58.1 0.012 7.8 15.16 10
4/11/2021 4:30:00 PM 14.59 58.262 0.012 7.8 18.52 9.98
4/11/2021 4:45:00 PM 14.66 58.388 0.013 7.8 27.09 9.96
4/11/2021 5:00:00 PM 14.67 58.406 0.012 7.8 18.13 9.94
4/11/2021 5:15:00 PM 14.63 58.334 0.012 7.8 16.54 9.93
4/11/2021 5:30:00 PM 14.55 58.19 0.012 7.8 18.46 9.88
4/11/2021 5:45:00 PM 14.45 58.01 0.012 7.79 15.48 9.83
4/11/2021 6:00:00 PM 14.37 57.866 0.012 7.78 18.55 9.8
4/11/2021 6:15:00 PM 14.31 57.758 0.012 7.78 14.24 9.78
4/11/2021 6:30:00 PM 14.26 57.668 0.011 7.78 15.09 9.76
4/11/2021 6:45:00 PM 14.2 57.56 0.011 7.78 15.04 9.75
4/11/2021 7:00:00 PM 14.14 57.452 0.011 7.77 13.89 9.73
4/11/2021 7:15:00 PM 14.09 57.362 0.01 7.77 13.12 9.71
4/11/2021 7:30:00 PM 14.03 57.254 0.01 7.76 15.08 9.69
4/11/2021 7:45:00 PM 13.97 57.146 0.011 7.76 11.66 9.68
4/11/2021 8:00:00 PM 13.92 57.056 0.011 7.76 12.86 9.66
4/11/2021 8:15:00 PM 13.87 56.966 0.011 7.75 13.01 9.66
4/11/2021 8:30:00 PM 13.83 56.894 0.01 7.75 13.47 9.65
4/11/2021 8:45:00 PM 13.78 56.804 0.011 7.74 12.2 9.64
4/11/2021 9:00:00 PM 13.73 56.714 0.011 7.74 13.6 9.64
4/11/2021 9:15:00 PM 13.68 56.624 0.01 7.74 11.93 9.64
4/11/2021 9:30:00 PM 13.63 56.534 0.01 7.73 12.8 9.65
4/11/2021 9:45:00 PM 13.59 56.462 0.011 7.73 12.84 9.65
4/11/2021 10:00:00 PM 13.54 56.372 0.011 7.72 11.45 9.65
4/11/2021 10:15:00 PM 13.49 56.282 0.011 7.72 11.37 9.66
4/11/2021 10:30:00 PM 13.43 56.174 0.01 7.72 10.93 9.67
4/11/2021 10:45:00 PM 13.38 56.084 0.011 7.71 10.83 9.67
4/11/2021 11:00:00 PM 13.32 55.976 0.011 7.71 11.14 9.68
4/11/2021 11:15:00 PM 13.26 55.868 0.011 7.7 10.36 9.69
4/11/2021 11:30:00 PM 13.21 55.778 0.011 7.7 10.82 9.7
4/11/2021 11:45:00 PM 13.16 55.688 0.011 7.69 10.52 9.71
4/12/2021 12:00:00 AM 13.11 55.598 0.01 7.69 10.81 9.72
4/12/2021 12:15:00 AM 13.06 55.508 0.011 7.69 10.29 9.72
4/12/2021 12:30:00 AM 13.01 55.418 0.01 7.68 10.62 9.73
4/12/2021 12:45:00 AM 12.96 55.328 0.01 7.68 10.61 9.74
4/12/2021 1:00:00 AM 12.91 55.238 0.01 7.68 10.03 9.75
4/12/2021 1:15:00 AM 12.86 55.148 0.01 7.67 9.86 9.76
4/12/2021 1:30:00 AM 12.81 55.058 0.01 7.67 9.76 9.77
4/12/2021 1:45:00 AM 12.77 54.986 0.01 7.66 9.8 9.79
4/12/2021 2:00:00 AM 12.72 54.896 0.01 7.66 9.81 9.79
4/12/2021 2:15:00 AM 12.66 54.788 0.01 7.66 9.32 9.81
4/12/2021 2:30:00 AM 12.61 54.698 0.01 7.65 9.43 9.82
4/12/2021 2:45:00 AM 12.55 54.59 0.011 7.65 9.9 9.83
4/12/2021 3:00:00 AM 12.49 54.482 0.01 7.65 9.65 9.84
4/12/2021 3:15:00 AM 12.43 54.374 0.01 7.64 9.6 9.86
4/12/2021 3:30:00 AM 12.39 54.302 0.01 7.64 9.51 9.87
4/12/2021 3:45:00 AM 12.35 54.23 0.009 7.64 9.44 9.88
4/12/2021 4:00:00 AM 12.29 54.122 0.01 7.64 9.39 9.89
4/12/2021 4:15:00 AM 12.22 53.996 0.01 7.63 8.81 9.9
4/12/2021 4:30:00 AM 12.16 53.888 0.01 7.63 9.51 9.92
4/12/2021 4:45:00 AM 12.12 53.816 0.01 7.63 8.97 9.93
4/12/2021 5:00:00 AM 12.07 53.726 0.01 7.63 9.17 9.94
4/12/2021 5:15:00 AM 12.01 53.618 0.01 7.62 9.53 9.95
4/12/2021 5:30:00 AM 11.95 53.51 0.01 7.62 9.22 9.97
4/12/2021 5:45:00 AM 11.9 53.42 0.01 7.62 8.76 9.98
4/12/2021 6:00:00 AM 11.85 53.33 0.01 7.62 9.39 10
4/12/2021 6:15:00 AM 11.79 53.222 0.01 7.62 11.26 10.01
4/12/2021 6:30:00 AM 11.75 53.15 0.009 7.62 10.02 10.02
4/12/2021 6:45:00 AM 11.7 53.06 0.01 7.62 9.16 10.04
4/12/2021 7:00:00 AM 11.65 52.97 0.01 7.62 9.1 10.06
4/12/2021 7:15:00 AM 11.61 52.898 0.01 7.61 8.46 10.07
4/12/2021 7:30:00 AM 11.56 52.808 0.01 7.62 9.96 10.1
4/12/2021 7:45:00 AM 11.52 52.736 0.01 7.62 8.62 10.11
4/12/2021 8:00:00 AM 11.48 52.664 0.009 7.62 9.26 10.14
4/12/2021 8:15:00 AM 11.45 52.61 0.01 7.62 9.15 10.17
4/12/2021 8:30:00 AM 11.42 52.556 0.009 7.62 8.17 10.19
4/12/2021 8:45:00 AM 11.39 52.502 0.01 7.62 8.4 10.21
4/12/2021 9:00:00 AM 11.38 52.484 0.01 7.63 8.6 10.25
4/12/2021 9:15:00 AM 11.36 52.448 0.01 7.63 8.1 10.28
4/12/2021 9:30:00 AM 11.34 52.412 0.01 7.64 8.6 10.3
4/12/2021 9:45:00 AM 11.34 52.412 0.009 7.65 7.67 10.33

These are provisional data and have not been subject to a quality assurance process, but rather are the raw data reported by the instrument.
H: value is above sensor operating range
L: value is below sensor operating range
Offline: station is not reporting data
NC: parameter is not collected at site

Data Availability & Limitations

Uncertainty and potential for error can be associated with environmental monitoring data. Provisional data have not been subject to a quality assurance process, but rather are the raw data reported by the instrument. Data users are cautioned to consider carefully the provisional nature of the information before using it for decisions that concern personal or public safety or the conduct of business that involves substantial monetary or operational consequences.

Approved data are currently available by request by emailing: srbc@srbc.net. Approved data have been subject to a quality assurance process to correct for equipment or fouling drift. Data recorded during equipment malfunctions have been removed.

View Historical Stations that have been discontinued.